Observation data for Weinert on 01/21/2019      Previous  Date  Next       Current Mesonet Observations  Soil Data  Daily Summary Page  Observations in Plain Language
KWE1 210600Z 15011KT 06/M02 A3005 RMK A01 T00561016  RH  060%=      5-min Rain = 0
KWE1 210601Z 15010KT 06/M02 A3005 RMK A01 T00561016  RH  060%=      5-min Rain = 0
KWE1 210602Z 16011KT 06/M02 A3005 RMK A01 T00561016  RH  060%=      5-min Rain = 0
KWE1 210603Z 16011KT 06/M02 A3005 RMK A01 T00551016  RH  060%=      5-min Rain = 0
KWE1 210604Z 15011KT 06/M02 A3005 RMK A01 T00551016  RH  060%=      5-min Rain = 0
KWE1 210605Z 15013KT 06/M02 A3005 RMK A01 T00551016  RH  060%=      5-min Rain = 0
KWE1 210606Z 15010KT 06/M02 A3005 RMK A01 T00561016  RH  060%=      5-min Rain = 0
KWE1 210607Z 15011KT 06/M02 A3005 RMK A01 T00561016  RH  060%=      5-min Rain = 0
KWE1 210608Z 15010KT 06/M02 A3005 RMK A01 T00561015  RH  060%=      5-min Rain = 0
KWE1 210609Z 15011KT 06/M02 A3005 RMK A01 T00551016  RH  060%=      5-min Rain = 0
KWE1 210610Z 15011KT 06/M02 A3005 RMK A01 T00561016  RH  060%=      5-min Rain = 0
KWE1 210611Z 15010KT 06/M02 A3005 RMK A01 T00561016  RH  060%=      5-min Rain = 0
KWE1 210612Z 15011KT 06/M02 A3005 RMK A01 T00551016  RH  060%=      5-min Rain = 0
KWE1 210613Z 15010KT 06/M02 A3005 RMK A01 T00551016  RH  060%=      5-min Rain = 0
KWE1 210614Z 15010KT 06/M02 A3005 RMK A01 T00551016  RH  060%=      5-min Rain = 0
KWE1 210615Z 15009KT 06/M02 A3005 RMK A01 T00551015  RH  061%=      5-min Rain = 0
KWE1 210616Z 16010KT 05/M02 A3005 RMK A01 T00541016  RH  061%=      5-min Rain = 0
KWE1 210617Z 16010KT 05/M02 A3005 RMK A01 T00541015  RH  061%=      5-min Rain = 0
KWE1 210618Z 16010KT 05/M02 A3005 RMK A01 T00541015  RH  061%=      5-min Rain = 0
KWE1 210619Z 16010KT 05/M02 A3005 RMK A01 T00541015  RH  061%=      5-min Rain = 0
KWE1 210620Z 16010KT 05/M02 A3005 RMK A01 T00541015  RH  061%=      5-min Rain = 0
KWE1 210621Z 16010KT 05/M02 A3005 RMK A01 T00541015  RH  061%=      5-min Rain = 0
KWE1 210622Z 16011KT 05/M02 A3005 RMK A01 T00541015  RH  061%=      5-min Rain = 0
KWE1 210623Z 16010KT 05/M02 A3005 RMK A01 T00531015  RH  061%=      5-min Rain = 0
KWE1 210624Z 16010KT 05/M02 A3005 RMK A01 T00531015  RH  061%=      5-min Rain = 0
KWE1 210625Z 16010KT 05/M02 A3005 RMK A01 T00531015  RH  061%=      5-min Rain = 0
KWE1 210626Z 15010KT 05/M02 A3005 RMK A01 T00541015  RH  061%=      5-min Rain = 0
KWE1 210627Z 16010KT 05/M02 A3005 RMK A01 T00531015  RH  062%=      5-min Rain = 0
KWE1 210628Z 16012KT 05/M02 A3005 RMK A01 T00531015  RH  062%=      5-min Rain = 0
KWE1 210629Z 16011KT 05/M02 A3005 RMK A01 T00541015  RH  061%=      5-min Rain = 0
KWE1 210630Z 16011KT 05/M02 A3005 RMK A01 T00541015  RH  061%=      5-min Rain = 0
KWE1 210631Z 16010KT 05/M02 A3005 RMK A01 T00541015  RH  061%=      5-min Rain = 0
KWE1 210632Z 16011KT 05/M02 A3005 RMK A01 T00531015  RH  061%=      5-min Rain = 0
KWE1 210633Z 15011KT 05/M02 A3005 RMK A01 T00531015  RH  062%=      5-min Rain = 0
KWE1 210634Z 16012KT 05/M01 A3005 RMK A01 T00531014  RH  062%=      5-min Rain = 0
KWE1 210635Z 16010KT 05/M02 A3005 RMK A01 T00531015  RH  062%=      5-min Rain = 0
KWE1 210636Z 16013KT 05/M02 A3005 RMK A01 T00531015  RH  062%=      5-min Rain = 0
KWE1 210637Z 15011KT 05/M02 A3005 RMK A01 T00531015  RH  062%=      5-min Rain = 0
KWE1 210638Z 16011KT 05/M02 A3005 RMK A01 T00531015  RH  062%=      5-min Rain = 0
KWE1 210639Z 15011KT 05/M02 A3005 RMK A01 T00531015  RH  062%=      5-min Rain = 0
KWE1 210640Z 16010KT 05/M02 A3005 RMK A01 T00521015  RH  062%=      5-min Rain = 0
KWE1 210641Z 16011KT 05/M02 A3005 RMK A01 T00521015  RH  062%=      5-min Rain = 0
KWE1 210642Z 15010KT 05/M02 A3005 RMK A01 T00531015  RH  062%=      5-min Rain = 0
KWE1 210643Z 16011KT 05/M01 A3005 RMK A01 T00531014  RH  062%=      5-min Rain = 0
KWE1 210644Z 15011KT 05/M01 A3005 RMK A01 T00521014  RH  062%=      5-min Rain = 0
KWE1 210645Z 15011KT 05/M01 A3005 RMK A01 T00521014  RH  062%=      5-min Rain = 0
KWE1 210646Z 15011KT 05/M02 A3005 RMK A01 T00511015  RH  062%=      5-min Rain = 0
KWE1 210647Z 15010KT 05/M01 A3005 RMK A01 T00511014  RH  063%=      5-min Rain = 0
KWE1 210648Z 15009KT 05/M01 A3005 RMK A01 T00511014  RH  063%=      5-min Rain = 0
KWE1 210649Z 16010KT 05/M01 A3005 RMK A01 T00501014  RH  063%=      5-min Rain = 0
KWE1 210650Z 16010KT 05/M01 A3005 RMK A01 T00501014  RH  063%=      5-min Rain = 0
KWE1 210651Z 16010KT 05/M01 A3005 RMK A01 T00501014  RH  063%=      5-min Rain = 0
KWE1 210652Z 16010KT 05/M01 A3005 RMK A01 T00501014  RH  063%=      5-min Rain = 0
KWE1 210653Z 16010KT 05/M01 A3005 RMK A01 T00501014  RH  063%=      5-min Rain = 0
KWE1 210654Z 15010KT 05/M01 A3005 RMK A01 T00511014  RH  063%=      5-min Rain = 0
KWE1 210655Z 15011KT 05/M01 A3005 RMK A01 T00511014  RH  063%=      5-min Rain = 0
KWE1 210656Z 16012KT 05/M01 A3005 RMK A01 T00511014  RH  063%=      5-min Rain = 0
KWE1 210657Z 15011KT 05/M01 A3005 RMK A01 T00511014  RH  063%=      5-min Rain = 0
KWE1 210658Z 16010KT 05/M01 A3004 RMK A01 T00501014  RH  063%=      5-min Rain = 0
KWE1 210659Z 15010KT 05/M01 A3004 RMK A01 T00501014  RH  063%=      5-min Rain = 0
KWE1 210700Z 15010KT 05/M01 A3004 RMK A01 T00501014  RH  064%=      5-min Rain = 0
KWE1 210701Z 15010KT 05/M01 A3004 RMK A01 T00491014  RH  064%=      5-min Rain = 0
KWE1 210702Z 15010KT 05/M01 A3004 RMK A01 T00501014  RH  064%=      5-min Rain = 0
KWE1 210703Z 15011KT 05/M01 A3004 RMK A01 T00491014  RH  064%=      5-min Rain = 0
KWE1 210704Z 15011KT 05/M01 A3004 RMK A01 T00491014  RH  064%=      5-min Rain = 0
KWE1 210705Z 15012KT 05/M01 A3004 RMK A01 T00491014  RH  064%=      5-min Rain = 0
KWE1 210706Z 16010KT 05/M01 A3004 RMK A01 T00491014  RH  064%=      5-min Rain = 0
KWE1 210707Z 16011KT 05/M01 A3004 RMK A01 T00491014  RH  064%=      5-min Rain = 0
KWE1 210708Z 15011KT 05/M01 A3004 RMK A01 T00491014  RH  064%=      5-min Rain = 0
KWE1 210709Z 15011KT 05/M01 A3004 RMK A01 T00491014  RH  064%=      5-min Rain = 0
KWE1 210710Z 16013KT 05/M01 A3004 RMK A01 T00491014  RH  064%=      5-min Rain = 0
KWE1 210711Z 15011G16KT 05/M01 A3004 RMK A01 T00501013  RH  064%=      5-min Rain = 0
KWE1 210712Z 15010KT 05/M01 A3004 RMK A01 T00501013  RH  063%=      5-min Rain = 0
KWE1 210713Z 16010KT 05/M01 A3004 RMK A01 T00501013  RH  063%=      5-min Rain = 0
KWE1 210714Z 15010KT 05/M01 A3004 RMK A01 T00491014  RH  064%=      5-min Rain = 0
KWE1 210715Z 15010KT 05/M01 A3004 RMK A01 T00491014  RH  064%=      5-min Rain = 0
KWE1 210716Z 16009KT 05/M01 A3004 RMK A01 T00481014  RH  064%=      5-min Rain = 0
KWE1 210717Z 15010KT 05/M01 A3004 RMK A01 T00481013  RH  065%=      5-min Rain = 0
KWE1 210718Z 15011KT 05/M01 A3004 RMK A01 T00481014  RH  065%=      5-min Rain = 0
KWE1 210719Z 16011KT 05/M01 A3004 RMK A01 T00481013  RH  064%=      5-min Rain = 0
KWE1 210720Z 16010KT 05/M01 A3004 RMK A01 T00481014  RH  064%=      5-min Rain = 0
KWE1 210721Z 15011KT 05/M01 A3004 RMK A01 T00481013  RH  064%=      5-min Rain = 0
KWE1 210722Z 15011KT 05/M01 A3004 RMK A01 T00481014  RH  064%=      5-min Rain = 0
KWE1 210723Z 16012KT 05/M01 A3003 RMK A01 T00481014  RH  064%=      5-min Rain = 0
KWE1 210724Z 16012KT 05/M01 A3003 RMK A01 T00501013  RH  064%=      5-min Rain = 0
KWE1 210725Z 15011KT 05/M01 A3004 RMK A01 T00501013  RH  064%=      5-min Rain = 0
KWE1 210726Z 15010KT 05/M01 A3004 RMK A01 T00501013  RH  064%=      5-min Rain = 0
KWE1 210727Z 16010KT 05/M01 A3004 RMK A01 T00491013  RH  064%=      5-min Rain = 0
KWE1 210728Z 15010KT 05/M01 A3004 RMK A01 T00481014  RH  064%=      5-min Rain = 0
KWE1 210729Z 16009KT 05/M01 A3004 RMK A01 T00481013  RH  064%=      5-min Rain = 0
KWE1 210730Z 15010KT 05/M01 A3004 RMK A01 T00481014  RH  064%=      5-min Rain = 0
KWE1 210731Z 16010KT 05/M01 A3004 RMK A01 T00471014  RH  065%=      5-min Rain = 0
KWE1 210732Z 16011KT 05/M01 A3004 RMK A01 T00471013  RH  065%=      5-min Rain = 0
KWE1 210733Z 15009KT 05/M01 A3004 RMK A01 T00471014  RH  065%=      5-min Rain = 0
KWE1 210734Z 15009KT 05/M01 A3004 RMK A01 T00461013  RH  065%=      5-min Rain = 0
KWE1 210735Z 16011KT 05/M01 A3004 RMK A01 T00451014  RH  066%=      5-min Rain = 0
KWE1 210736Z 16011KT 05/M01 A3003 RMK A01 T00451013  RH  066%=      5-min Rain = 0
KWE1 210737Z 16011KT 05/M01 A3003 RMK A01 T00461013  RH  065%=      5-min Rain = 0
KWE1 210738Z 16012KT 05/M01 A3003 RMK A01 T00471013  RH  065%=      5-min Rain = 0
KWE1 210739Z 16010KT 05/M01 A3003 RMK A01 T00481013  RH  065%=      5-min Rain = 0
KWE1 210740Z 16011KT 05/M01 A3003 RMK A01 T00491013  RH  064%=      5-min Rain = 0
KWE1 210741Z 15011KT 05/M01 A3003 RMK A01 T00491013  RH  064%=      5-min Rain = 0
KWE1 210742Z 15011KT 05/M01 A3003 RMK A01 T00481013  RH  064%=      5-min Rain = 0
KWE1 210743Z 15011KT 05/M01 A3003 RMK A01 T00481013  RH  065%=      5-min Rain = 0
KWE1 210744Z 16010KT 05/M01 A3003 RMK A01 T00481013  RH  065%=      5-min Rain = 0
KWE1 210745Z 16010KT 05/M01 A3003 RMK A01 T00481013  RH  065%=      5-min Rain = 0
KWE1 210746Z 16011KT 05/M01 A3003 RMK A01 T00481012  RH  065%=      5-min Rain = 0
KWE1 210747Z 16011KT 05/M01 A3003 RMK A01 T00501012  RH  064%=      5-min Rain = 0
KWE1 210748Z 16010KT 05/M01 A3003 RMK A01 T00501012  RH  064%=      5-min Rain = 0
KWE1 210749Z 16010KT 05/M01 A3003 RMK A01 T00501012  RH  064%=      5-min Rain = 0
KWE1 210750Z 16012KT 05/M01 A3003 RMK A01 T00501012  RH  064%=      5-min Rain = 0
KWE1 210751Z 16012KT 05/M01 A3003 RMK A01 T00501012  RH  064%=      5-min Rain = 0
KWE1 210752Z 16010KT 05/M01 A3003 RMK A01 T00521012  RH  064%=      5-min Rain = 0
KWE1 210753Z 16009KT 05/M01 A3003 RMK A01 T00511012  RH  064%=      5-min Rain = 0
KWE1 210754Z 16012KT 05/M01 A3003 RMK A01 T00501013  RH  064%=      5-min Rain = 0
KWE1 210755Z 16010KT 05/M01 A3003 RMK A01 T00511012  RH  064%=      5-min Rain = 0
KWE1 210756Z 16011KT 05/M01 A3003 RMK A01 T00511012  RH  064%=      5-min Rain = 0
KWE1 210757Z 16010KT 05/M01 A3003 RMK A01 T00521011  RH  064%=      5-min Rain = 0
KWE1 210758Z 16011KT 05/M01 A3003 RMK A01 T00521012  RH  064%=      5-min Rain = 0
KWE1 210759Z 16009KT 05/M01 A3003 RMK A01 T00521012  RH  064%=      5-min Rain = 0
KWE1 210800Z 16010KT 05/M01 A3003 RMK A01 T00511012  RH  064%=      5-min Rain = 0
KWE1 210801Z 16009KT 05/M01 A3003 RMK A01 T00501012  RH  064%=      5-min Rain = 0
KWE1 210802Z 16010KT 05/M01 A3003 RMK A01 T00491012  RH  064%=      5-min Rain = 0
KWE1 210803Z 16010KT 05/M01 A3003 RMK A01 T00491012  RH  065%=      5-min Rain = 0
KWE1 210804Z 16011KT 05/M01 A3003 RMK A01 T00491012  RH  065%=      5-min Rain = 0
KWE1 210805Z 16009KT 05/M01 A3003 RMK A01 T00491012  RH  065%=      5-min Rain = 0
KWE1 210806Z 16011KT 05/M01 A3003 RMK A01 T00491012  RH  065%=      5-min Rain = 0
KWE1 210807Z 16009KT 05/M01 A3002 RMK A01 T00491012  RH  065%=      5-min Rain = 0
KWE1 210808Z 16009KT 05/M01 A3002 RMK A01 T00491012  RH  065%=      5-min Rain = 0
KWE1 210809Z 15010KT 05/M01 A3002 RMK A01 T00481012  RH  065%=      5-min Rain = 0
KWE1 210810Z 16011KT 05/M01 A3003 RMK A01 T00471012  RH  065%=      5-min Rain = 0
KWE1 210811Z 16011KT 05/M01 A3002 RMK A01 T00471012  RH  066%=      5-min Rain = 0
KWE1 210812Z 16009KT 05/M01 A3002 RMK A01 T00471011  RH  066%=      5-min Rain = 0
KWE1 210813Z 17010KT 05/M01 A3002 RMK A01 T00471011  RH  066%=      5-min Rain = 0
KWE1 210814Z 16010KT 05/M01 A3002 RMK A01 T00481011  RH  066%=      5-min Rain = 0
KWE1 210815Z 16010KT 05/M01 A3002 RMK A01 T00491011  RH  065%=      5-min Rain = 0
KWE1 210816Z 16011KT 05/M01 A3002 RMK A01 T00481011  RH  065%=      5-min Rain = 0
KWE1 210817Z 16010KT 05/M01 A3002 RMK A01 T00481011  RH  065%=      5-min Rain = 0
KWE1 210818Z 16010KT 05/M01 A3002 RMK A01 T00481011  RH  065%=      5-min Rain = 0
KWE1 210819Z 16010KT 05/M01 A3002 RMK A01 T00491011  RH  065%=      5-min Rain = 0
KWE1 210820Z 16009KT 05/M01 A3002 RMK A01 T00481011  RH  065%=      5-min Rain = 0
KWE1 210821Z 16009KT 05/M01 A3002 RMK A01 T00481012  RH  065%=      5-min Rain = 0
KWE1 210822Z 16009KT 05/M01 A3002 RMK A01 T00471012  RH  066%=      5-min Rain = 0
KWE1 210823Z 16011KT 05/M01 A3002 RMK A01 T00461011  RH  066%=      5-min Rain = 0
KWE1 210824Z 16009KT 05/M01 A3002 RMK A01 T00461011  RH  066%=      5-min Rain = 0
KWE1 210825Z 16010KT 05/M01 A3002 RMK A01 T00461011  RH  066%=      5-min Rain = 0
KWE1 210826Z 16010KT 05/M01 A3002 RMK A01 T00461011  RH  066%=      5-min Rain = 0
KWE1 210827Z 16011KT 05/M01 A3002 RMK A01 T00461011  RH  066%=      5-min Rain = 0
KWE1 210828Z 16010KT 05/M01 A3002 RMK A01 T00461011  RH  066%=      5-min Rain = 0
KWE1 210829Z 16010KT 05/M01 A3002 RMK A01 T00461011  RH  067%=      5-min Rain = 0
KWE1 210830Z 16009KT 05/M01 A3002 RMK A01 T00461011  RH  067%=      5-min Rain = 0
KWE1 210831Z 16010KT 05/M01 A3002 RMK A01 T00461011  RH  066%=      5-min Rain = 0
KWE1 210832Z 16011KT 05/M01 A3002 RMK A01 T00461011  RH  066%=      5-min Rain = 0
KWE1 210833Z 16009KT 05/M01 A3002 RMK A01 T00471010  RH  066%=      5-min Rain = 0
KWE1 210834Z 16009KT 05/M01 A3002 RMK A01 T00471010  RH  067%=      5-min Rain = 0
KWE1 210835Z 16010KT 05/M01 A3002 RMK A01 T00461010  RH  067%=      5-min Rain = 0
KWE1 210836Z 16009KT 05/M01 A3002 RMK A01 T00461010  RH  067%=      5-min Rain = 0
KWE1 210837Z 16009KT 05/M01 A3002 RMK A01 T00461010  RH  067%=      5-min Rain = 0
KWE1 210838Z 16009KT 05/M01 A3001 RMK A01 T00451010  RH  067%=      5-min Rain = 0
KWE1 210839Z 16009KT 05/M01 A3001 RMK A01 T00451010  RH  068%=      5-min Rain = 0
KWE1 210840Z 16009KT 05/M01 A3001 RMK A01 T00451010  RH  068%=      5-min Rain = 0
KWE1 210841Z 16009KT 05/M01 A3001 RMK A01 T00451010  RH  068%=      5-min Rain = 0
KWE1 210842Z 16010KT 05/M01 A3001 RMK A01 T00451010  RH  068%=      5-min Rain = 0
KWE1 210843Z 16009KT 05/M01 A3001 RMK A01 T00451009  RH  068%=      5-min Rain = 0
KWE1 210844Z 16010KT 05/M01 A3001 RMK A01 T00461009  RH  068%=      5-min Rain = 0
KWE1 210845Z 16011KT 05/M01 A3001 RMK A01 T00461009  RH  068%=      5-min Rain = 0
KWE1 210846Z 16008KT 05/M01 A3001 RMK A01 T00461009  RH  068%=      5-min Rain = 0
KWE1 210847Z 16011KT 05/M01 A3001 RMK A01 T00451009  RH  068%=      5-min Rain = 0
KWE1 210848Z 16011KT 05/M01 A3001 RMK A01 T00451009  RH  068%=      5-min Rain = 0
KWE1 210849Z 16010KT 05/M01 A3001 RMK A01 T00461009  RH  067%=      5-min Rain = 0
KWE1 210850Z 16010KT 05/M01 A3001 RMK A01 T00461009  RH  067%=      5-min Rain = 0
KWE1 210851Z 16010KT 05/M01 A3001 RMK A01 T00461009  RH  067%=      5-min Rain = 0
KWE1 210852Z 16010KT 05/M01 A3001 RMK A01 T00461009  RH  067%=      5-min Rain = 0
KWE1 210853Z 16010KT 05/M01 A3001 RMK A01 T00461009  RH  067%=      5-min Rain = 0
KWE1 210854Z 16010KT 05/M01 A3001 RMK A01 T00471009  RH  067%=      5-min Rain = 0
KWE1 210855Z 17009KT 05/M01 A3001 RMK A01 T00471009  RH  067%=      5-min Rain = 0
KWE1 210856Z 16008G13KT 05/M01 A3001 RMK A01 T00471009  RH  067%=      5-min Rain = 0
KWE1 210857Z 16010KT 05/M01 A3001 RMK A01 T00471009  RH  067%=      5-min Rain = 0
KWE1 210858Z 17010KT 05/M01 A3001 RMK A01 T00471009  RH  067%=      5-min Rain = 0
KWE1 210859Z 17010KT 05/M01 A3001 RMK A01 T00471009  RH  067%=      5-min Rain = 0
KWE1 210900Z 17009KT 05/M01 A3001 RMK A01 T00471009  RH  067%=      5-min Rain = 0
KWE1 210901Z 17009KT 05/M01 A3001 RMK A01 T00471008  RH  067%=      5-min Rain = 0
KWE1 210902Z 17009KT 05/M01 A3001 RMK A01 T00471008  RH  067%=      5-min Rain = 0
KWE1 210903Z 16009KT 05/M01 A3001 RMK A01 T00481008  RH  067%=      5-min Rain = 0
KWE1 210904Z 17009KT 05/M01 A3001 RMK A01 T00481008  RH  067%=      5-min Rain = 0
KWE1 210905Z 17009KT 05/M01 A3001 RMK A01 T00481008  RH  067%=      5-min Rain = 0
KWE1 210906Z 17009KT 05/M01 A3001 RMK A01 T00481008  RH  067%=      5-min Rain = 0
KWE1 210907Z 17009KT 05/M01 A3001 RMK A01 T00491007  RH  067%=      5-min Rain = 0
KWE1 210908Z 17009KT 05/M01 A3001 RMK A01 T00501007  RH  067%=      5-min Rain = 0
KWE1 210909Z 17010KT 05/M01 A3001 RMK A01 T00511007  RH  066%=      5-min Rain = 0
KWE1 210910Z 17009KT 05/M01 A3001 RMK A01 T00511007  RH  066%=      5-min Rain = 0
KWE1 210911Z 17009KT 05/M01 A3001 RMK A01 T00521007  RH  066%=      5-min Rain = 0
KWE1 210912Z 17010KT 05/M01 A3001 RMK A01 T00511007  RH  066%=      5-min Rain = 0
KWE1 210913Z 16009KT 05/M01 A3001 RMK A01 T00521007  RH  066%=      5-min Rain = 0
KWE1 210914Z 16009KT 05/M01 A3001 RMK A01 T00521007  RH  065%=      5-min Rain = 0
KWE1 210915Z 17010KT 05/M01 A3001 RMK A01 T00521008  RH  066%=      5-min Rain = 0
KWE1 210916Z 17011KT 05/M01 A3001 RMK A01 T00521007  RH  066%=      5-min Rain = 0
KWE1 210917Z 17011KT 05/M01 A3001 RMK A01 T00521007  RH  066%=      5-min Rain = 0
KWE1 210918Z 17011KT 05/M01 A3001 RMK A01 T00521007  RH  066%=      5-min Rain = 0
KWE1 210919Z 16010KT 05/M01 A3001 RMK A01 T00531007  RH  065%=      5-min Rain = 0
KWE1 210920Z 17011KT 05/M01 A3001 RMK A01 T00521007  RH  066%=      5-min Rain = 0
KWE1 210921Z 17010KT 05/M01 A3001 RMK A01 T00521007  RH  066%=      5-min Rain = 0
KWE1 210922Z 17010KT 05/M01 A3001 RMK A01 T00521007  RH  066%=      5-min Rain = 0
KWE1 210923Z 17011KT 05/M01 A3001 RMK A01 T00521007  RH  066%=      5-min Rain = 0
KWE1 210924Z 17010KT 05/M01 A30 RMK A01 T00521007  RH  066%=      5-min Rain = 0
KWE1 210925Z 17011KT 05/M01 A30 RMK A01 T00531007  RH  066%=      5-min Rain = 0
KWE1 210926Z 17011KT 05/M01 A30 RMK A01 T00531007  RH  066%=      5-min Rain = 0
KWE1 210927Z 17010KT 05/M01 A30 RMK A01 T00521007  RH  066%=      5-min Rain = 0
KWE1 210928Z 17010KT 05/M01 A30 RMK A01 T00511007  RH  066%=      5-min Rain = 0
KWE1 210929Z 16010KT 05/M01 A30 RMK A01 T00501008  RH  066%=      5-min Rain = 0
KWE1 210930Z 16010KT 05/M01 A30 RMK A01 T00491008  RH  067%=      5-min Rain = 0
KWE1 210931Z 16009KT 05/M01 A30 RMK A01 T00491007  RH  067%=      5-min Rain = 0
KWE1 210932Z 17010KT 05/M01 A30 RMK A01 T00491007  RH  067%=      5-min Rain = 0
KWE1 210933Z 16010KT 05/M01 A30 RMK A01 T00481008  RH  067%=      5-min Rain = 0
KWE1 210934Z 16009KT 05/M01 A30 RMK A01 T00481008  RH  067%=      5-min Rain = 0
KWE1 210935Z 16010KT 05/M01 A30 RMK A01 T00481007  RH  067%=      5-min Rain = 0
KWE1 210936Z 16010KT 05/M01 A3001 RMK A01 T00481007  RH  068%=      5-min Rain = 0
KWE1 210937Z 16009KT 05/M01 A3001 RMK A01 T00471008  RH  067%=      5-min Rain = 0
KWE1 210938Z 16009KT 05/M01 A3001 RMK A01 T00471008  RH  068%=      5-min Rain = 0
KWE1 210939Z 16010KT 05/M01 A3001 RMK A01 T00461008  RH  068%=      5-min Rain = 0
KWE1 210940Z 16011KT 05/M01 A30 RMK A01 T00451008  RH  068%=      5-min Rain = 0
KWE1 210941Z 16010KT 05/M01 A30 RMK A01 T00451008  RH  069%=      5-min Rain = 0
KWE1 210942Z 16009KT 05/M01 A30 RMK A01 T00451008  RH  069%=      5-min Rain = 0
KWE1 210943Z 16010KT 04/M01 A30 RMK A01 T00441008  RH  069%=      5-min Rain = 0
KWE1 210944Z 16010KT 04/M01 A30 RMK A01 T00441008  RH  069%=      5-min Rain = 0
KWE1 210945Z 16011KT 04/M01 A30 RMK A01 T00441008  RH  069%=      5-min Rain = 0
KWE1 210946Z 15011KT 04/M01 A30 RMK A01 T00441007  RH  069%=      5-min Rain = 0
KWE1 210947Z 16010KT 05/M01 A30 RMK A01 T00461007  RH  068%=      5-min Rain = 0
KWE1 210948Z 16011KT 05/M01 A30 RMK A01 T00461007  RH  068%=      5-min Rain = 0
KWE1 210949Z 16010KT 05/M01 A30 RMK A01 T00461008  RH  068%=      5-min Rain = 0
KWE1 210950Z 16010KT 05/M01 A30 RMK A01 T00461008  RH  068%=      5-min Rain = 0
KWE1 210951Z 16010KT 05/M01 A30 RMK A01 T00451008  RH  068%=      5-min Rain = 0
KWE1 210952Z 16010KT 05/M01 A30 RMK A01 T00451008  RH  069%=      5-min Rain = 0
KWE1 210953Z 16011KT 04/M01 A30 RMK A01 T00441008  RH  069%=      5-min Rain = 0
KWE1 210954Z 16010KT 04/M01 A2999 RMK A01 T00441008  RH  069%=      5-min Rain = 0
KWE1 210955Z 16009KT 05/M01 A2999 RMK A01 T00451008  RH  069%=      5-min Rain = 0
KWE1 210956Z 16010KT 05/M01 A2999 RMK A01 T00451008  RH  068%=      5-min Rain = 0
KWE1 210957Z 16010KT 05/M01 A2999 RMK A01 T00451008  RH  068%=      5-min Rain = 0
KWE1 210958Z 16010KT 05/M01 A2999 RMK A01 T00461008  RH  068%=      5-min Rain = 0
KWE1 210959Z 15011KT 05/M01 A2999 RMK A01 T00461008  RH  068%=      5-min Rain = 0
KWE1 211000Z 15010KT 05/M01 A2999 RMK A01 T00461008  RH  068%=      5-min Rain = 0
KWE1 211001Z 15010KT 05/M01 A2999 RMK A01 T00461008  RH  068%=      5-min Rain = 0
KWE1 211002Z 16011KT 05/M01 A2999 RMK A01 T00451008  RH  068%=      5-min Rain = 0
KWE1 211003Z 15012KT 05/M01 A2999 RMK A01 T00451009  RH  068%=      5-min Rain = 0
KWE1 211004Z 15011KT 05/M01 A2999 RMK A01 T00451008  RH  068%=      5-min Rain = 0
KWE1 211005Z 16011KT 04/M01 A2998 RMK A01 T00441009  RH  069%=      5-min Rain = 0
KWE1 211006Z 15010KT 04/M01 A2998 RMK A01 T00441009  RH  069%=      5-min Rain = 0
KWE1 211007Z 15010KT 04/M01 A2998 RMK A01 T00441009  RH  069%=      5-min Rain = 0
KWE1 211008Z 16010KT 04/M01 A2998 RMK A01 T00431009  RH  069%=      5-min Rain = 0
KWE1 211009Z 16011KT 04/M01 A2998 RMK A01 T00421010  RH  069%=      5-min Rain = 0
KWE1 211010Z 16010KT 04/M01 A2998 RMK A01 T00421010  RH  069%=      5-min Rain = 0
KWE1 211011Z 16011KT 04/M01 A2998 RMK A01 T00421009  RH  070%=      5-min Rain = 0
KWE1 211012Z 16011KT 04/M01 A2998 RMK A01 T00411009  RH  070%=      5-min Rain = 0
KWE1 211013Z 16011KT 04/M01 A2998 RMK A01 T00421009  RH  069%=      5-min Rain = 0
KWE1 211014Z 16010KT 04/M01 A2998 RMK A01 T00411010  RH  069%=      5-min Rain = 0
KWE1 211015Z 16011KT 04/M01 A2998 RMK A01 T00421010  RH  069%=      5-min Rain = 0
KWE1 211016Z 16010KT 04/M01 A2998 RMK A01 T00421010  RH  069%=      5-min Rain = 0
KWE1 211017Z 16010KT 04/M01 A2998 RMK A01 T00411010  RH  069%=      5-min Rain = 0
KWE1 211018Z 16010KT 04/M01 A2998 RMK A01 T00411010  RH  069%=      5-min Rain = 0
KWE1 211019Z 16010KT 04/M01 A2998 RMK A01 T00411010  RH  069%=      5-min Rain = 0
KWE1 211020Z 16010KT 04/M01 A2998 RMK A01 T00401010  RH  070%=      5-min Rain = 0
KWE1 211021Z 16010KT 04/M01 A2998 RMK A01 T00401010  RH  070%=      5-min Rain = 0
KWE1 211022Z 16010KT 04/M01 A2998 RMK A01 T00401010  RH  070%=      5-min Rain = 0
KWE1 211023Z 16011KT 04/M01 A2998 RMK A01 T00401009  RH  070%=      5-min Rain = 0
KWE1 211024Z 16010KT 04/M01 A2998 RMK A01 T00411010  RH  070%=      5-min Rain = 0
KWE1 211025Z 16010KT 04/M01 A2998 RMK A01 T00411009  RH  070%=      5-min Rain = 0
KWE1 211026Z 16011KT 04/M01 A2998 RMK A01 T00411009  RH  070%=      5-min Rain = 0
KWE1 211027Z 16011KT 04/M01 A2998 RMK A01 T00411009  RH  070%=      5-min Rain = 0
KWE1 211028Z 17011KT 04/M01 A2998 RMK A01 T00421009  RH  069%=      5-min Rain = 0
KWE1 211029Z 16010KT 04/M01 A2998 RMK A01 T00431009  RH  069%=      5-min Rain = 0
KWE1 211030Z 17011KT 04/M01 A2998 RMK A01 T00431008  RH  069%=      5-min Rain = 0
KWE1 211031Z 16011KT 04/M01 A2998 RMK A01 T00431009  RH  069%=      5-min Rain = 0
KWE1 211032Z 16011KT 04/M01 A2998 RMK A01 T00431008  RH  069%=      5-min Rain = 0
KWE1 211033Z 17011KT 04/M01 A2997 RMK A01 T00431008  RH  069%=      5-min Rain = 0
KWE1 211034Z 16010KT 04/M01 A2997 RMK A01 T00441008  RH  069%=      5-min Rain = 0
KWE1 211035Z 17011KT 04/M01 A2997 RMK A01 T00441008  RH  069%=      5-min Rain = 0
KWE1 211036Z 17011KT 04/M01 A2997 RMK A01 T00441008  RH  069%=      5-min Rain = 0
KWE1 211037Z 17011KT 05/M01 A2997 RMK A01 T00451008  RH  069%=      5-min Rain = 0
KWE1 211038Z 17011KT 05/M01 A2997 RMK A01 T00451008  RH  069%=      5-min Rain = 0
KWE1 211039Z 16011KT 05/M01 A2997 RMK A01 T00451008  RH  069%=      5-min Rain = 0
KWE1 211040Z 16009KT 05/M01 A2997 RMK A01 T00451008  RH  069%=      5-min Rain = 0
KWE1 211041Z 16011KT 05/M01 A2997 RMK A01 T00451007  RH  069%=      5-min Rain = 0
KWE1 211042Z 16009KT 04/M01 A2997 RMK A01 T00441008  RH  069%=      5-min Rain = 0
KWE1 211043Z 17010KT 04/M01 A2997 RMK A01 T00441008  RH  069%=      5-min Rain = 0
KWE1 211044Z 17011KT 04/M01 A2997 RMK A01 T00441008  RH  069%=      5-min Rain = 0
KWE1 211045Z 16011KT 04/M01 A2997 RMK A01 T00441007  RH  069%=      5-min Rain = 0
KWE1 211046Z 16011KT 05/M01 A2997 RMK A01 T00451007  RH  069%=      5-min Rain = 0
KWE1 211047Z 16011KT 05/M01 A2997 RMK A01 T00451007  RH  069%=      5-min Rain = 0
KWE1 211048Z 17010KT 05/M01 A2997 RMK A01 T00451007  RH  069%=      5-min Rain = 0
KWE1 211049Z 17009KT 05/M01 A2997 RMK A01 T00461007  RH  069%=      5-min Rain = 0
KWE1 211050Z 16011KT 05/M01 A2997 RMK A01 T00461007  RH  069%=      5-min Rain = 0
KWE1 211051Z 17011KT 05/M01 A2997 RMK A01 T00461007  RH  069%=      5-min Rain = 0
KWE1 211052Z 16011KT 05/M01 A2997 RMK A01 T00461007  RH  069%=      5-min Rain = 0
KWE1 211053Z 16011KT 05/M01 A2997 RMK A01 T00461007  RH  069%=      5-min Rain = 0
KWE1 211054Z 17010KT 05/M01 A2997 RMK A01 T00461007  RH  068%=      5-min Rain = 0
KWE1 211055Z 17011KT 05/M01 A2997 RMK A01 T00461007  RH  069%=      5-min Rain = 0
KWE1 211056Z 17010KT 05/M01 A2997 RMK A01 T00451007  RH  069%=      5-min Rain = 0
KWE1 211057Z 16011KT 05/M01 A2997 RMK A01 T00451007  RH  069%=      5-min Rain = 0
KWE1 211058Z 16012KT 05/M01 A2997 RMK A01 T00451007  RH  069%=      5-min Rain = 0
KWE1 211059Z 16011KT 05/M01 A2996 RMK A01 T00461007  RH  069%=      5-min Rain = 0
KWE1 211100Z 16010KT 05/M01 A2997 RMK A01 T00461007  RH  068%=      5-min Rain = 0
KWE1 211101Z 16010KT 05/M01 A2996 RMK A01 T00451008  RH  068%=      5-min Rain = 0
KWE1 211102Z 16010KT 04/M01 A2996 RMK A01 T00441008  RH  069%=      5-min Rain = 0
KWE1 211103Z 16010KT 04/M01 A2996 RMK A01 T00441007  RH  069%=      5-min Rain = 0
KWE1 211104Z 16010KT 04/M01 A2996 RMK A01 T00441007  RH  069%=      5-min Rain = 0
KWE1 211105Z 16010KT 04/M01 A2996 RMK A01 T00441007  RH  069%=      5-min Rain = 0
KWE1 211106Z 16009KT 04/M01 A2996 RMK A01 T00441007  RH  069%=      5-min Rain = 0
KWE1 211107Z 16008KT 04/M01 A2996 RMK A01 T00441007  RH  070%=      5-min Rain = 0
KWE1 211108Z 16010KT 04/M01 A2996 RMK A01 T00431007  RH  070%=      5-min Rain = 0
KWE1 211109Z 16009KT 04/M01 A2996 RMK A01 T00431007  RH  070%=      5-min Rain = 0
KWE1 211110Z 16010KT 04/M01 A2996 RMK A01 T00441007  RH  070%=      5-min Rain = 0
KWE1 211111Z 17010KT 04/M01 A2996 RMK A01 T00441007  RH  070%=      5-min Rain = 0
KWE1 211112Z 17010KT 05/M01 A2996 RMK A01 T00451006  RH  069%=      5-min Rain = 0
KWE1 211113Z 17010KT 05/M01 A2996 RMK A01 T00471006  RH  069%=      5-min Rain = 0
KWE1 211114Z 17011KT 05/M01 A2996 RMK A01 T00471006  RH  068%=      5-min Rain = 0
KWE1 211115Z 16010KT 05/M01 A2996 RMK A01 T00481006  RH  068%=      5-min Rain = 0
KWE1 211116Z 17010KT 05/M01 A2996 RMK A01 T00481006  RH  068%=      5-min Rain = 0
KWE1 211117Z 17010KT 05/M01 A2996 RMK A01 T00481006  RH  068%=      5-min Rain = 0
KWE1 211118Z 17010KT 05/M01 A2996 RMK A01 T00481006  RH  068%=      5-min Rain = 0
KWE1 211119Z 17010KT 05/M01 A2996 RMK A01 T00471006  RH  068%=      5-min Rain = 0
KWE1 211120Z 17010KT 05/M01 A2996 RMK A01 T00471006  RH  069%=      5-min Rain = 0
KWE1 211121Z 17010KT 05/M01 A2996 RMK A01 T00471006  RH  069%=      5-min Rain = 0
KWE1 211122Z 17010KT 05/M01 A2996 RMK A01 T00461006  RH  069%=      5-min Rain = 0
KWE1 211123Z 17011KT 05/M01 A2996 RMK A01 T00461006  RH  069%=      5-min Rain = 0
KWE1 211124Z 17011KT 05/M01 A2996 RMK A01 T00461006  RH  069%=      5-min Rain = 0
KWE1 211125Z 17010KT 05/M01 A2996 RMK A01 T00471006  RH  069%=      5-min Rain = 0
KWE1 211126Z 17012KT 05/M01 A2996 RMK A01 T00471006  RH  069%=      5-min Rain = 0
KWE1 211127Z 17011KT 05/M01 A2996 RMK A01 T00471005  RH  069%=      5-min Rain = 0
KWE1 211128Z 17010KT 05/M01 A2996 RMK A01 T00461006  RH  069%=      5-min Rain = 0
KWE1 211129Z 17010KT 05/M01 A2996 RMK A01 T00461005  RH  069%=      5-min Rain = 0
KWE1 211130Z 17011KT 05/M01 A2996 RMK A01 T00451005  RH  070%=      5-min Rain = 0
KWE1 211131Z 17012KT 05/M01 A2996 RMK A01 T00451005  RH  070%=      5-min Rain = 0
KWE1 211132Z 17011KT 05/M01 A2996 RMK A01 T00451005  RH  070%=      5-min Rain = 0
KWE1 211133Z 17010KT 05/M01 A2996 RMK A01 T00461005  RH  070%=      5-min Rain = 0
KWE1 211134Z 17012KT 05/M00 A2996 RMK A01 T00461004  RH  070%=      5-min Rain = 0
KWE1 211135Z 17011KT 05/M00 A2996 RMK A01 T00461004  RH  070%=      5-min Rain = 0
KWE1 211136Z 17011KT 05/M00 A2995 RMK A01 T00461004  RH  070%=      5-min Rain = 0
KWE1 211137Z 17011KT 05/M01 A2995 RMK A01 T00461005  RH  070%=      5-min Rain = 0
KWE1 211138Z 17011KT 05/M01 A2995 RMK A01 T00461005  RH  070%=      5-min Rain = 0
KWE1 211139Z 17012KT 05/M00 A2995 RMK A01 T00461004  RH  070%=      5-min Rain = 0
KWE1 211140Z 17011KT 05/M01 A2995 RMK A01 T00461005  RH  070%=      5-min Rain = 0
KWE1 211141Z 17011KT 05/M00 A2995 RMK A01 T00471004  RH  070%=      5-min Rain = 0
KWE1 211142Z 17010KT 05/M00 A2995 RMK A01 T00471004  RH  070%=      5-min Rain = 0
KWE1 211143Z 17011KT 05/M00 A2995 RMK A01 T00461004  RH  070%=      5-min Rain = 0
KWE1 211144Z 17011KT 05/M00 A2995 RMK A01 T00461004  RH  070%=      5-min Rain = 0
KWE1 211145Z 17009KT 05/M00 A2995 RMK A01 T00461004  RH  070%=      5-min Rain = 0
KWE1 211146Z 17010KT 05/M00 A2995 RMK A01 T00461004  RH  070%=      5-min Rain = 0
KWE1 211147Z 16009KT 05/M00 A2995 RMK A01 T00461004  RH  070%=      5-min Rain = 0
KWE1 211148Z 17012KT 05/M00 A2995 RMK A01 T00461004  RH  070%=      5-min Rain = 0
KWE1 211149Z 17011KT 05/M00 A2995 RMK A01 T00461004  RH  070%=      5-min Rain = 0
KWE1 211150Z 17010KT 05/M00 A2995 RMK A01 T00481004  RH  069%=      5-min Rain = 0
KWE1 211151Z 17010KT 05/M00 A2995 RMK A01 T00471004  RH  069%=      5-min Rain = 0
KWE1 211152Z 17009KT 05/M00 A2995 RMK A01 T00471004  RH  069%=      5-min Rain = 0
KWE1 211153Z 17010KT 05/M00 A2995 RMK A01 T00471004  RH  069%=      5-min Rain = 0
KWE1 211154Z 17009KT 05/M00 A2995 RMK A01 T00481004  RH  069%=      5-min Rain = 0
KWE1 211155Z 16009KT 05/M00 A2995 RMK A01 T00471004  RH  069%=      5-min Rain = 0
KWE1 211156Z 17010KT 05/M00 A2995 RMK A01 T00481004  RH  069%=      5-min Rain = 0
KWE1 211157Z 17010KT 05/M00 A2995 RMK A01 T00481004  RH  069%=      5-min Rain = 0
KWE1 211158Z 17010KT 05/M00 A2995 RMK A01 T00481004  RH  069%=      5-min Rain = 0
KWE1 211159Z 17009KT 05/M00 A2995 RMK A01 T00481004  RH  069%=      5-min Rain = 0
KWE1 211200Z 17010KT 05/M00 A2995 RMK A01 T00481004  RH  069%=      5-min Rain = 0
KWE1 211201Z 16009KT 05/M00 A2995 RMK A01 T00481004  RH  069%=      5-min Rain = 0
KWE1 211202Z 17009KT 05/M00 A2995 RMK A01 T00481004  RH  069%=      5-min Rain = 0
KWE1 211203Z 17009KT 05/M00 A2995 RMK A01 T00481004  RH  069%=      5-min Rain = 0
KWE1 211204Z 17011KT 05/M00 A2995 RMK A01 T00481004  RH  069%=      5-min Rain = 0
KWE1 211205Z 16010KT 05/M00 A2995 RMK A01 T00491004  RH  068%=      5-min Rain = 0
KWE1 211206Z 17010KT 05/M00 A2995 RMK A01 T00511004  RH  068%=      5-min Rain = 0
KWE1 211207Z 16009KT 05/M00 A2995 RMK A01 T00511004  RH  068%=      5-min Rain = 0
KWE1 211208Z 17009KT 05/M00 A2995 RMK A01 T00511004  RH  068%=      5-min Rain = 0
KWE1 211209Z 17011KT 05/M00 A2995 RMK A01 T00511004  RH  068%=      5-min Rain = 0
KWE1 211210Z 17010KT 05/M00 A2995 RMK A01 T00511004  RH  068%=      5-min Rain = 0
KWE1 211211Z 17010KT 05/M00 A2995 RMK A01 T00511004  RH  068%=      5-min Rain = 0
KWE1 211212Z 16009KT 05/M00 A2995 RMK A01 T00511004  RH  068%=      5-min Rain = 0
KWE1 211213Z 16009KT 05/M00 A2995 RMK A01 T00511004  RH  068%=      5-min Rain = 0
KWE1 211214Z 17009KT 05/M00 A2995 RMK A01 T00511004  RH  068%=      5-min Rain = 0
KWE1 211215Z 17009KT 05/M00 A2995 RMK A01 T00511004  RH  068%=      5-min Rain = 0
KWE1 211216Z 17008KT 05/M00 A2995 RMK A01 T00501004  RH  068%=      5-min Rain = 0
KWE1 211217Z 17007KT 05/M00 A2995 RMK A01 T00501004  RH  068%=      5-min Rain = 0
KWE1 211218Z 17008KT 05/M00 A2995 RMK A01 T00501004  RH  068%=      5-min Rain = 0
KWE1 211219Z 17008KT 05/M00 A2995 RMK A01 T00501004  RH  068%=      5-min Rain = 0
KWE1 211220Z 17009KT 05/M00 A2995 RMK A01 T00501004  RH  068%=      5-min Rain = 0
KWE1 211221Z 17009KT 05/M00 A2995 RMK A01 T00501004  RH  068%=      5-min Rain = 0
KWE1 211222Z 17009KT 05/M00 A2995 RMK A01 T00501004  RH  068%=      5-min Rain = 0
KWE1 211223Z 16008KT 05/M00 A2995 RMK A01 T00501004  RH  068%=      5-min Rain = 0
KWE1 211224Z 17007KT 05/M00 A2995 RMK A01 T00501004  RH  068%=      5-min Rain = 0
KWE1 211225Z 17007KT 05/M00 A2995 RMK A01 T00491004  RH  068%=      5-min Rain = 0
KWE1 211226Z 16007KT 05/M00 A2995 RMK A01 T00491004  RH  069%=      5-min Rain = 0
KWE1 211227Z 16008KT 05/M00 A2995 RMK A01 T00481004  RH  069%=      5-min Rain = 0
KWE1 211228Z 17008KT 05/M00 A2995 RMK A01 T00481004  RH  069%=      5-min Rain = 0
KWE1 211229Z 17007KT 05/M00 A2995 RMK A01 T00491004  RH  069%=      5-min Rain = 0
KWE1 211230Z 16008KT 05/M00 A2995 RMK A01 T00491004  RH  069%=      5-min Rain = 0
KWE1 211231Z 17009KT 05/M00 A2995 RMK A01 T00481004  RH  069%=      5-min Rain = 0
KWE1 211232Z 16009KT 05/M00 A2995 RMK A01 T00481004  RH  069%=      5-min Rain = 0
KWE1 211233Z 17009KT 05/M00 A2995 RMK A01 T00491004  RH  069%=      5-min Rain = 0
KWE1 211234Z 16010KT 05/M00 A2995 RMK A01 T00491004  RH  068%=      5-min Rain = 0
KWE1 211235Z 16010KT 05/M00 A2995 RMK A01 T00501004  RH  068%=      5-min Rain = 0
KWE1 211236Z 17009KT 05/M00 A2995 RMK A01 T00511004  RH  067%=      5-min Rain = 0
KWE1 211237Z 16008KT 05/M00 A2995 RMK A01 T00521004  RH  067%=      5-min Rain = 0
KWE1 211238Z 17008KT 05/M00 A2995 RMK A01 T00521004  RH  067%=      5-min Rain = 0
KWE1 211239Z 17009KT 05/M00 A2995 RMK A01 T00511004  RH  067%=      5-min Rain = 0
KWE1 211240Z 17010KT 05/M00 A2995 RMK A01 T00511004  RH  067%=      5-min Rain = 0
KWE1 211241Z 17010KT 05/M01 A2995 RMK A01 T00511005  RH  067%=      5-min Rain = 0
KWE1 211242Z 16009KT 05/M01 A2995 RMK A01 T00511005  RH  067%=      5-min Rain = 0
KWE1 211243Z 17008KT 05/M00 A2995 RMK A01 T00511004  RH  067%=      5-min Rain = 0
KWE1 211244Z 17010KT 05/M00 A2995 RMK A01 T00511004  RH  068%=      5-min Rain = 0
KWE1 211245Z 17009KT 05/M00 A2995 RMK A01 T00501004  RH  068%=      5-min Rain = 0
KWE1 211246Z 17008KT 05/M00 A2995 RMK A01 T00501004  RH  068%=      5-min Rain = 0
KWE1 211247Z 17009KT 05/M00 A2995 RMK A01 T00501004  RH  068%=      5-min Rain = 0
KWE1 211248Z 17010KT 05/M00 A2996 RMK A01 T00501004  RH  068%=      5-min Rain = 0
KWE1 211249Z 17009KT 05/M00 A2996 RMK A01 T00491004  RH  068%=      5-min Rain = 0
KWE1 211250Z 17010KT 05/M00 A2996 RMK A01 T00491004  RH  068%=      5-min Rain = 0
KWE1 211251Z 17010KT 05/M00 A2996 RMK A01 T00491004  RH  069%=      5-min Rain = 0
KWE1 211252Z 17010KT 05/M00 A2996 RMK A01 T00481004  RH  069%=      5-min Rain = 0
KWE1 211253Z 17009KT 05/M00 A2996 RMK A01 T00481004  RH  069%=      5-min Rain = 0
KWE1 211254Z 17009KT 05/M00 A2996 RMK A01 T00481004  RH  069%=      5-min Rain = 0
KWE1 211255Z 17009KT 05/M00 A2996 RMK A01 T00491004  RH  069%=      5-min Rain = 0
KWE1 211256Z 17009KT 05/M00 A2996 RMK A01 T00481004  RH  069%=      5-min Rain = 0
KWE1 211257Z 18010KT 05/M00 A2996 RMK A01 T00481004  RH  069%=      5-min Rain = 0
KWE1 211258Z 17009KT 05/M00 A2996 RMK A01 T00481004  RH  069%=      5-min Rain = 0
KWE1 211259Z 17009KT 05/M00 A2996 RMK A01 T00481004  RH  069%=      5-min Rain = 0
KWE1 211300Z 17009KT 05/M00 A2996 RMK A01 T00481004  RH  069%=      5-min Rain = 0
KWE1 211301Z 17009KT 05/M00 A2996 RMK A01 T00481004  RH  069%=      5-min Rain = 0
KWE1 211302Z 17009KT 05/M00 A2997 RMK A01 T00481004  RH  069%=      5-min Rain = 0
KWE1 211303Z 17010KT 05/M00 A2997 RMK A01 T00481004  RH  069%=      5-min Rain = 0
KWE1 211304Z 18009KT 05/M01 A2997 RMK A01 T00481005  RH  069%=      5-min Rain = 0
KWE1 211305Z 17010KT 05/M00 A2996 RMK A01 T00491004  RH  068%=      5-min Rain = 0
KWE1 211306Z 17010KT 05/M01 A2996 RMK A01 T00501005  RH  068%=      5-min Rain = 0
KWE1 211307Z 17010KT 05/M01 A2996 RMK A01 T00501005  RH  068%=      5-min Rain = 0
KWE1 211308Z 17010KT 05/M01 A2996 RMK A01 T00491005  RH  068%=      5-min Rain = 0
KWE1 211309Z 17010KT 05/M01 A2996 RMK A01 T00491005  RH  068%=      5-min Rain = 0
KWE1 211310Z 17012KT 05/M01 A2996 RMK A01 T00501005  RH  068%=      5-min Rain = 0
KWE1 211311Z 17010KT 05/M01 A2996 RMK A01 T00511005  RH  067%=      5-min Rain = 0
KWE1 211312Z 17013KT 05/M01 A2996 RMK A01 T00521005  RH  067%=      5-min Rain = 0
KWE1 211313Z 17011KT 05/M01 A2996 RMK A01 T00531005  RH  066%=      5-min Rain = 0
KWE1 211314Z 17011KT 05/M01 A2996 RMK A01 T00531005  RH  066%=      5-min Rain = 0
KWE1 211315Z 17011KT 05/M01 A2996 RMK A01 T00531005  RH  066%=      5-min Rain = 0
KWE1 211316Z 17011KT 05/M01 A2996 RMK A01 T00531006  RH  066%=      5-min Rain = 0
KWE1 211317Z 17012KT 05/M01 A2996 RMK A01 T00531006  RH  066%=      5-min Rain = 0
KWE1 211318Z 17012KT 05/M01 A2996 RMK A01 T00531006  RH  066%=      5-min Rain = 0
KWE1 211319Z 17013KT 05/M01 A2996 RMK A01 T00541006  RH  065%=      5-min Rain = 0
KWE1 211320Z 17012KT 06/M01 A2996 RMK A01 T00551006  RH  065%=      5-min Rain = 0
KWE1 211321Z 17012KT 06/M01 A2996 RMK A01 T00551006  RH  065%=      5-min Rain = 0
KWE1 211322Z 17011KT 06/M01 A2995 RMK A01 T00551006  RH  065%=      5-min Rain = 0
KWE1 211323Z 17012KT 05/M01 A2995 RMK A01 T00541006  RH  065%=      5-min Rain = 0
KWE1 211324Z 17013KT 05/M01 A2995 RMK A01 T00541006  RH  065%=      5-min Rain = 0
KWE1 211325Z 17013KT 05/M01 A2995 RMK A01 T00541006  RH  065%=      5-min Rain = 0
KWE1 211326Z 17013KT 05/M01 A2995 RMK A01 T00541006  RH  065%=      5-min Rain = 0
KWE1 211327Z 16014KT 05/M01 A2995 RMK A01 T00541006  RH  065%=      5-min Rain = 0
KWE1 211328Z 16013KT 06/M01 A2995 RMK A01 T00551006  RH  064%=      5-min Rain = 0
KWE1 211329Z 17013KT 06/M01 A2995 RMK A01 T00561007  RH  064%=      5-min Rain = 0
KWE1 211330Z 17013KT 06/M01 A2995 RMK A01 T00561007  RH  064%=      5-min Rain = 0
KWE1 211331Z 17013KT 06/M01 A2995 RMK A01 T00571006  RH  064%=      5-min Rain = 0
KWE1 211332Z 16012KT 06/M01 A2995 RMK A01 T00561007  RH  064%=      5-min Rain = 0
KWE1 211333Z 16010KT 06/M01 A2995 RMK A01 T00551007  RH  064%=      5-min Rain = 0
KWE1 211334Z 16012KT 05/M01 A2995 RMK A01 T00541007  RH  065%=      5-min Rain = 0
KWE1 211335Z 17013KT 05/M01 A2995 RMK A01 T00541007  RH  065%=      5-min Rain = 0
KWE1 211336Z 16011KT 05/M01 A2995 RMK A01 T00541006  RH  065%=      5-min Rain = 0
KWE1 211337Z 17011KT 05/M01 A2995 RMK A01 T00541007  RH  065%=      5-min Rain = 0
KWE1 211338Z 17011KT 05/M01 A2995 RMK A01 T00541007  RH  065%=      5-min Rain = 0
KWE1 211339Z 17010KT 05/M01 A2995 RMK A01 T00541007  RH  065%=      5-min Rain = 0
KWE1 211340Z 17012KT 05/M01 A2995 RMK A01 T00541007  RH  065%=      5-min Rain = 0
KWE1 211341Z 17012KT 05/M01 A2995 RMK A01 T00541006  RH  065%=      5-min Rain = 0
KWE1 211342Z 16011KT 05/M01 A2995 RMK A01 T00541006  RH  065%=      5-min Rain = 0
KWE1 211343Z 17010KT 05/M01 A2995 RMK A01 T00541007  RH  065%=      5-min Rain = 0
KWE1 211344Z 17011KT 05/M01 A2995 RMK A01 T00541007  RH  065%=      5-min Rain = 0
KWE1 211345Z 17011KT 05/M01 A2995 RMK A01 T00531006  RH  065%=      5-min Rain = 0
KWE1 211346Z 17011KT 05/M01 A2995 RMK A01 T00531006  RH  065%=      5-min Rain = 0
KWE1 211347Z 17011KT 05/M01 A2995 RMK A01 T00521006  RH  066%=      5-min Rain = 0
KWE1 211348Z 17013KT 05/M01 A2995 RMK A01 T00521006  RH  066%=      5-min Rain = 0
KWE1 211349Z 17011KT 05/M01 A2995 RMK A01 T00531007  RH  066%=      5-min Rain = 0
KWE1 211350Z 17012KT 05/M01 A2995 RMK A01 T00531007  RH  065%=      5-min Rain = 0
KWE1 211351Z 17012KT 05/M01 A2995 RMK A01 T00531006  RH  066%=      5-min Rain = 0
KWE1 211352Z 17012KT 05/M01 A2995 RMK A01 T00531006  RH  066%=      5-min Rain = 0
KWE1 211353Z 17013KT 05/M01 A2995 RMK A01 T00531006  RH  066%=      5-min Rain = 0
KWE1 211354Z 17011KT 05/M01 A2995 RMK A01 T00531006  RH  066%=      5-min Rain = 0
KWE1 211355Z 17012KT 05/M01 A2995 RMK A01 T00531006  RH  066%=      5-min Rain = 0
KWE1 211356Z 17010KT 05/M01 A2996 RMK A01 T00531006  RH  066%=      5-min Rain = 0
KWE1 211357Z 17009KT 05/M01 A2996 RMK A01 T00521006  RH  066%=      5-min Rain = 0
KWE1 211358Z 17012KT 05/M01 A2996 RMK A01 T00521006  RH  066%=      5-min Rain = 0
KWE1 211359Z 17010KT 05/M01 A2996 RMK A01 T00521006  RH  066%=      5-min Rain = 0
KWE1 211400Z 18009KT 05/M01 A2996 RMK A01 T00531006  RH  066%=      5-min Rain = 0
KWE1 211401Z 18008KT 05/M01 A2996 RMK A01 T00531006  RH  066%=      5-min Rain = 0
KWE1 211402Z 17011KT 05/M01 A2996 RMK A01 T00531006  RH  066%=      5-min Rain = 0
KWE1 211403Z 17010KT 05/M01 A2996 RMK A01 T00541006  RH  065%=      5-min Rain = 0
KWE1 211404Z 17010KT 06/M01 A2996 RMK A01 T00551006  RH  065%=      5-min Rain = 0
KWE1 211405Z 17009G14KT 06/M01 A2996 RMK A01 T00551006  RH  065%=      5-min Rain = 0
KWE1 211406Z 17010KT 06/M01 A2996 RMK A01 T00551006  RH  065%=      5-min Rain = 0
KWE1 211407Z 18010KT 05/M01 A2996 RMK A01 T00541006  RH  065%=      5-min Rain = 0
KWE1 211408Z 18010G15KT 05/M01 A2996 RMK A01 T00541006  RH  065%=      5-min Rain = 0
KWE1 211409Z 18009KT 05/M01 A2996 RMK A01 T00541007  RH  065%=      5-min Rain = 0
KWE1 211410Z 17010KT 05/M01 A2996 RMK A01 T00541006  RH  065%=      5-min Rain = 0
KWE1 211411Z 18009KT 05/M01 A2996 RMK A01 T00541006  RH  065%=      5-min Rain = 0
KWE1 211412Z 18011KT 05/M01 A2996 RMK A01 T00541006  RH  065%=      5-min Rain = 0
KWE1 211413Z 17010KT 05/M01 A2996 RMK A01 T00531006  RH  066%=      5-min Rain = 0
KWE1 211414Z 17010KT 05/M01 A2995 RMK A01 T00541006  RH  066%=      5-min Rain = 0
KWE1 211415Z 17009KT 05/M01 A2995 RMK A01 T00531006  RH  066%=      5-min Rain = 0
KWE1 211416Z 17010KT 05/M01 A2995 RMK A01 T00531006  RH  066%=      5-min Rain = 0
KWE1 211417Z 17010KT 05/M01 A2995 RMK A01 T00531005  RH  066%=      5-min Rain = 0
KWE1 211418Z 17011KT 05/M01 A2995 RMK A01 T00531006  RH  066%=      5-min Rain = 0
KWE1 211419Z 17013KT 05/M01 A2995 RMK A01 T00531006  RH  066%=      5-min Rain = 0
KWE1 211420Z 17011KT 05/M01 A2995 RMK A01 T00531006  RH  066%=      5-min Rain = 0
KWE1 211421Z 17012KT 05/M01 A2995 RMK A01 T00531005  RH  066%=      5-min Rain = 0
KWE1 211422Z 17013KT 05/M01 A2995 RMK A01 T00531005  RH  066%=      5-min Rain = 0
KWE1 211423Z 17014KT 05/M01 A2994 RMK A01 T00531005  RH  066%=      5-min Rain = 0
KWE1 211424Z 17014KT 05/M01 A2994 RMK A01 T00531005  RH  066%=      5-min Rain = 0
KWE1 211425Z 17014KT 05/M01 A2994 RMK A01 T00541005  RH  066%=      5-min Rain = 0
KWE1 211426Z 17014KT 06/M01 A2994 RMK A01 T00551005  RH  065%=      5-min Rain = 0
KWE1 211427Z 17012KT 06/M01 A2994 RMK A01 T00561005  RH  065%=      5-min Rain = 0
KWE1 211428Z 17012KT 06/M01 A2994 RMK A01 T00561005  RH  065%=      5-min Rain = 0
KWE1 211429Z 18012G17KT 06/M01 A2994 RMK A01 T00561005  RH  065%=      5-min Rain = 0
KWE1 211430Z 17012KT 06/M01 A2994 RMK A01 T00561005  RH  065%=      5-min Rain = 0
KWE1 211431Z 17012KT 06/M01 A2994 RMK A01 T00561005  RH  065%=      5-min Rain = 0
KWE1 211432Z 17012KT 06/M01 A2994 RMK A01 T00561005  RH  065%=      5-min Rain = 0
KWE1 211433Z 17013KT 06/M01 A2994 RMK A01 T00561005  RH  065%=      5-min Rain = 0
KWE1 211434Z 17011KT 06/M01 A2994 RMK A01 T00551006  RH  065%=      5-min Rain = 0
KWE1 211435Z 17013KT 06/M01 A2994 RMK A01 T00561005  RH  065%=      5-min Rain = 0
KWE1 211436Z 18013KT 06/M01 A2994 RMK A01 T00561006  RH  065%=      5-min Rain = 0
KWE1 211437Z 18011KT 06/M01 A2994 RMK A01 T00561005  RH  065%=      5-min Rain = 0
KWE1 211438Z 18012KT 06/M01 A2994 RMK A01 T00561005  RH  065%=      5-min Rain = 0
KWE1 211439Z 18011KT 06/M01 A2994 RMK A01 T00561005  RH  065%=      5-min Rain = 0
KWE1 211440Z 17013KT 06/M01 A2994 RMK A01 T00561005  RH  065%=      5-min Rain = 0
KWE1 211441Z 18013KT 06/M01 A2994 RMK A01 T00561005  RH  065%=      5-min Rain = 0
KWE1 211442Z 17015KT 06/M01 A2994 RMK A01 T00561005  RH  065%=      5-min Rain = 0
KWE1 211443Z 17012G17KT 06/M01 A2994 RMK A01 T00561006  RH  065%=      5-min Rain = 0
KWE1 211444Z 18013KT 06/M01 A2993 RMK A01 T00561006  RH  065%=      5-min Rain = 0
KWE1 211445Z 18013KT 06/M01 A2993 RMK A01 T00561005  RH  065%=      5-min Rain = 0
KWE1 211446Z 17014KT 06/M01 A2993 RMK A01 T00561005  RH  065%=      5-min Rain = 0
KWE1 211447Z 18014KT 06/M01 A2993 RMK A01 T00551005  RH  065%=      5-min Rain = 0
KWE1 211448Z 17012KT 06/M01 A2993 RMK A01 T00551005  RH  065%=      5-min Rain = 0
KWE1 211449Z 18012KT 06/M01 A2993 RMK A01 T00551005  RH  065%=      5-min Rain = 0
KWE1 211450Z 18013KT 06/M01 A2993 RMK A01 T00551005  RH  065%=      5-min Rain = 0
KWE1 211451Z 17012KT 06/M00 A2994 RMK A01 T00551004  RH  065%=      5-min Rain = 0
KWE1 211452Z 18013KT 06/M00 A2994 RMK A01 T00551004  RH  066%=      5-min Rain = 0
KWE1 211453Z 18011KT 06/M00 A2994 RMK A01 T00551004  RH  066%=      5-min Rain = 0
KWE1 211454Z 18013KT 06/M00 A2994 RMK A01 T00551004  RH  066%=      5-min Rain = 0
KWE1 211455Z 18010KT 06/M00 A2994 RMK A01 T00561004  RH  065%=      5-min Rain = 0
KWE1 211456Z 18010KT 06/M00 A2994 RMK A01 T00561004  RH  065%=      5-min Rain = 0
KWE1 211457Z 18011KT 06/M00 A2994 RMK A01 T00561004  RH  065%=      5-min Rain = 0
KWE1 211458Z 19010KT 06/M00 A2995 RMK A01 T00571004  RH  065%=      5-min Rain = 0
KWE1 211459Z 19011KT 06/M00 A2995 RMK A01 T00581004  RH  064%=      5-min Rain = 0
KWE1 211500Z 19012KT 06/M00 A2995 RMK A01 T00591004  RH  064%=      5-min Rain = 0
KWE1 211501Z 19011KT 06/M00 A2995 RMK A01 T00611003  RH  063%=      5-min Rain = 0
KWE1 211502Z 19012KT 06/M00 A2996 RMK A01 T00631003  RH  063%=      5-min Rain = 0
KWE1 211503Z 19012KT 07/M00 A2996 RMK A01 T00661002  RH  062%=      5-min Rain = 0
KWE1 211504Z 19012KT 07/M00 A2996 RMK A01 T00661003  RH  061%=      5-min Rain = 0
KWE1 211505Z 20011KT 07/M00 A2996 RMK A01 T00671004  RH  061%=      5-min Rain = 0
KWE1 211506Z 19010KT 07/M00 A2996 RMK A01 T00671003  RH  061%=      5-min Rain = 0
KWE1 211507Z 20011KT 07/M00 A2996 RMK A01 T00681003  RH  060%=      5-min Rain = 0
KWE1 211508Z 19012KT 07/M00 A2996 RMK A01 T00691003  RH  060%=      5-min Rain = 0
KWE1 211509Z 20011KT 07/M00 A2996 RMK A01 T00701003  RH  060%=      5-min Rain = 0
KWE1 211510Z 19011KT 07/M00 A2996 RMK A01 T00711002  RH  060%=      5-min Rain = 0
KWE1 211511Z 19013KT 07/M00 A2996 RMK A01 T00711003  RH  059%=      5-min Rain = 0
KWE1 211512Z 19011KT 07/M00 A2996 RMK A01 T00711003  RH  059%=      5-min Rain = 0
KWE1 211513Z 19011KT 07/M00 A2996 RMK A01 T00711003  RH  059%=      5-min Rain = 0
KWE1 211514Z 20013KT 07/M00 A2996 RMK A01 T00701003  RH  060%=      5-min Rain = 0
KWE1 211515Z 19010KT 07/M00 A2996 RMK A01 T00701003  RH  060%=      5-min Rain = 0
KWE1 211516Z 19012KT 07/M00 A2996 RMK A01 T00711001  RH  060%=      5-min Rain = 0
KWE1 211517Z 19013KT 07/M00 A2996 RMK A01 T00721002  RH  059%=      5-min Rain = 0
KWE1 211518Z 19012KT 07/M00 A2996 RMK A01 T00731002  RH  059%=      5-min Rain = 0
KWE1 211519Z 19013KT 07/M00 A2996 RMK A01 T00741002  RH  059%=      5-min Rain = 0
KWE1 211520Z 19012G17KT 08/M00 A2995 RMK A01 T00751002  RH  058%=      5-min Rain = 0
KWE1 211521Z 19011KT 08/M00 A2995 RMK A01 T00761001  RH  058%=      5-min Rain = 0
KWE1 211522Z 19011KT 08/00 A2995 RMK A01 T007800-0  RH  058%=      5-min Rain = 0
KWE1 211523Z 19014KT 08/00 A2995 RMK A01 T00790000  RH  057%=      5-min Rain = 0
KWE1 211524Z 19012KT 08/M00 A2995 RMK A01 T00791001  RH  057%=      5-min Rain = 0
KWE1 211525Z 19011KT 08/00 A2995 RMK A01 T008000-0  RH  057%=      5-min Rain = 0
KWE1 211526Z 19012G17KT 08/00 A2995 RMK A01 T00810000  RH  057%=      5-min Rain = 0
KWE1 211527Z 19013KT 08/M00 A2995 RMK A01 T00811001  RH  056%=      5-min Rain = 0
KWE1 211528Z 19015KT 08/M00 A2995 RMK A01 T00811001  RH  056%=      5-min Rain = 0
KWE1 211529Z 18011KT 08/00 A2995 RMK A01 T008200-0  RH  056%=      5-min Rain = 0
KWE1 211530Z 19013KT 08/00 A2995 RMK A01 T00830001  RH  056%=      5-min Rain = 0
KWE1 211531Z 19012KT 08/00 A2995 RMK A01 T00830000  RH  056%=      5-min Rain = 0
KWE1 211532Z 18013KT 08/00 A2995 RMK A01 T00840001  RH  056%=      5-min Rain = 0
KWE1 211533Z 18014KT 09/00 A2995 RMK A01 T00850001  RH  056%=      5-min Rain = 0
KWE1 211534Z 18016KT 08/00 A2995 RMK A01 T008400-0  RH  055%=      5-min Rain = 0
KWE1 211535Z 18016KT 08/M00 A2995 RMK A01 T00821002  RH  055%=      5-min Rain = 0
KWE1 211536Z 19016KT 08/M00 A2995 RMK A01 T00811003  RH  055%=      5-min Rain = 0
KWE1 211537Z 18016KT 08/M00 A2995 RMK A01 T00811003  RH  055%=      5-min Rain = 0
KWE1 211538Z 18016KT 08/M00 A2995 RMK A01 T00811002  RH  056%=      5-min Rain = 0
KWE1 211539Z 19014G20KT 08/M00 A2995 RMK A01 T00811003  RH  056%=      5-min Rain = 0
KWE1 211540Z 19016G21KT 08/M00 A2995 RMK A01 T00801004  RH  055%=      5-min Rain = 0
KWE1 211541Z 18014KT 08/M00 A2995 RMK A01 T00811003  RH  055%=      5-min Rain = 0
KWE1 211542Z 18016KT 08/M00 A2995 RMK A01 T00831002  RH  055%=      5-min Rain = 0
KWE1 211543Z 19017KT 09/M00 A2995 RMK A01 T00851003  RH  054%=      5-min Rain = 0
KWE1 211544Z 19015KT 08/M00 A2995 RMK A01 T00841004  RH  054%=      5-min Rain = 0
KWE1 211545Z 19015KT 08/M00 A2995 RMK A01 T00831004  RH  054%=      5-min Rain = 0
KWE1 211546Z 18013KT 08/M00 A2995 RMK A01 T00821002  RH  055%=      5-min Rain = 0
KWE1 211547Z 18017KT 08/M00 A2994 RMK A01 T00821002  RH  055%=      5-min Rain = 0
KWE1 211548Z 18017KT 08/M00 A2994 RMK A01 T00821003  RH  055%=      5-min Rain = 0
KWE1 211549Z 18014KT 08/M00 A2994 RMK A01 T00821003  RH  055%=      5-min Rain = 0
KWE1 211550Z 18017KT 08/M00 A2994 RMK A01 T00821003  RH  055%=      5-min Rain = 0
KWE1 211551Z 18016KT 08/M00 A2994 RMK A01 T00821003  RH  055%=      5-min Rain = 0
KWE1 211552Z 19014G19KT 08/M00 A2994 RMK A01 T00821003  RH  055%=      5-min Rain = 0
KWE1 211553Z 18013G19KT 08/M00 A2994 RMK A01 T00821002  RH  055%=      5-min Rain = 0
KWE1 211554Z 18014KT 08/M00 A2994 RMK A01 T00821002  RH  055%=      5-min Rain = 0
KWE1 211555Z 19014KT 08/M00 A2994 RMK A01 T00821002  RH  055%=      5-min Rain = 0
KWE1 211556Z 18012KT 08/M00 A2994 RMK A01 T00821002  RH  055%=      5-min Rain = 0
KWE1 211557Z 18012KT 08/M00 A2994 RMK A01 T00831001  RH  056%=      5-min Rain = 0
KWE1 211558Z 18015KT 08/00 A2994 RMK A01 T008400-0  RH  055%=      5-min Rain = 0
KWE1 211559Z 18015KT 08/M00 A2994 RMK A01 T00841001  RH  055%=      5-min Rain = 0
KWE1 211600Z 19012KT 09/M00 A2994 RMK A01 T00861001  RH  055%=      5-min Rain = 0
KWE1 211601Z 18014KT 09/00 A2994 RMK A01 T00880001  RH  054%=      5-min Rain = 0
KWE1 211602Z 18015G20KT 09/00 A2994 RMK A01 T00890000  RH  054%=      5-min Rain = 0
KWE1 211603Z 18015KT 09/00 A2994 RMK A01 T008900-0  RH  053%=      5-min Rain = 0
KWE1 211604Z 18015KT 09/00 A2994 RMK A01 T008800-0  RH  054%=      5-min Rain = 0
KWE1 211605Z 18012KT 09/00 A2994 RMK A01 T00880000  RH  054%=      5-min Rain = 0
KWE1 211606Z 18013G18KT 09/00 A2994 RMK A01 T00880002  RH  055%=      5-min Rain = 0
KWE1 211607Z 19012G17KT 09/00 A2994 RMK A01 T00890002  RH  054%=      5-min Rain = 0
KWE1 211608Z 18014G19KT 09/00 A2994 RMK A01 T00890002  RH  055%=      5-min Rain = 0
KWE1 211609Z 18015KT 09/00 A2994 RMK A01 T00890000  RH  054%=      5-min Rain = 0
KWE1 211610Z 18014KT 09/00 A2994 RMK A01 T00890001  RH  054%=      5-min Rain = 0
KWE1 211611Z 18013G18KT 09/00 A2994 RMK A01 T00900001  RH  054%=      5-min Rain = 0
KWE1 211612Z 18013KT 09/00 A2993 RMK A01 T00920003  RH  054%=      5-min Rain = 0
KWE1 211613Z 18015KT 09/00 A2993 RMK A01 T00930003  RH  053%=      5-min Rain = 0
KWE1 211614Z 18012KT 09/00 A2993 RMK A01 T00940003  RH  053%=      5-min Rain = 0
KWE1 211615Z 18016KT 09/00 A2993 RMK A01 T00940003  RH  053%=      5-min Rain = 0
KWE1 211616Z 18016KT 10/00 A2993 RMK A01 T00950001  RH  052%=      5-min Rain = 0
KWE1 211617Z 18015KT 09/00 A2993 RMK A01 T00940001  RH  052%=      5-min Rain = 0
KWE1 211618Z 18014G19KT 09/00 A2993 RMK A01 T00940003  RH  053%=      5-min Rain = 0
KWE1 211619Z 18015KT 10/00 A2993 RMK A01 T00950002  RH  053%=      5-min Rain = 0
KWE1 211620Z 18017G24KT 10/00 A2992 RMK A01 T00950001  RH  052%=      5-min Rain = 0
KWE1 211621Z 17014KT 10/00 A2992 RMK A01 T00950001  RH  052%=      5-min Rain = 0
KWE1 211622Z 18013G19KT 10/00 A2992 RMK A01 T00950003  RH  053%=      5-min Rain = 0
KWE1 211623Z 18016KT 10/00 A2992 RMK A01 T00950003  RH  052%=      5-min Rain = 0
KWE1 211624Z 18016KT 10/00 A2992 RMK A01 T00950003  RH  052%=      5-min Rain = 0
KWE1 211625Z 18018KT 10/00 A2992 RMK A01 T00960002  RH  052%=      5-min Rain = 0
KWE1 211626Z 19017KT 10/00 A2992 RMK A01 T00950000  RH  051%=      5-min Rain = 0
KWE1 211627Z 18017KT 10/00 A2992 RMK A01 T00960001  RH  052%=      5-min Rain = 0
KWE1 211628Z 19016KT 10/00 A2992 RMK A01 T00960001  RH  052%=      5-min Rain = 0
KWE1 211629Z 19018KT 10/00 A2992 RMK A01 T00970001  RH  051%=      5-min Rain = 0
KWE1 211630Z 18018KT 10/00 A2992 RMK A01 T00970001  RH  051%=      5-min Rain = 0
KWE1 211631Z 18018KT 10/00 A2992 RMK A01 T00990000  RH  050%=      5-min Rain = 0
KWE1 211632Z 18015KT 10/00 A2992 RMK A01 T01000002  RH  050%=      5-min Rain = 0
KWE1 211633Z 18015KT 10/00 A2992 RMK A01 T01000004  RH  051%=      5-min Rain = 0
KWE1 211634Z 19015KT 10/00 A2992 RMK A01 T01010002  RH  050%=      5-min Rain = 0
KWE1 211635Z 18017KT 10/00 A2992 RMK A01 T01020003  RH  050%=      5-min Rain = 0
KWE1 211636Z 18011KT 10/00 A2992 RMK A01 T01020003  RH  050%=      5-min Rain = 0
KWE1 211637Z 18015G21KT 10/01 A2992 RMK A01 T01040006  RH  051%=      5-min Rain = 0
KWE1 211638Z 19016KT 11/00 A2992 RMK A01 T01050004  RH  050%=      5-min Rain = 0
KWE1 211639Z 18019G24KT 11/00 A2992 RMK A01 T01060003  RH  049%=      5-min Rain = 0
KWE1 211640Z 19014KT 11/00 A2992 RMK A01 T01060001  RH  048%=      5-min Rain = 0
KWE1 211641Z 18016KT 11/00 A2992 RMK A01 T01060004  RH  049%=      5-min Rain = 0
KWE1 211642Z 18013KT 11/00 A2992 RMK A01 T01060002  RH  049%=      5-min Rain = 0
KWE1 211643Z 18013KT 11/00 A2992 RMK A01 T01050004  RH  050%=      5-min Rain = 0
KWE1 211644Z 18015G20KT 11/00 A2992 RMK A01 T01050004  RH  050%=      5-min Rain = 0
KWE1 211645Z 18015G21KT 11/00 A2992 RMK A01 T01050004  RH  050%=      5-min Rain = 0
KWE1 211646Z 18018KT 11/00 A2991 RMK A01 T01050003  RH  049%=      5-min Rain = 0
KWE1 211647Z 18017G22KT 11/00 A2991 RMK A01 T01060002  RH  049%=      5-min Rain = 0
KWE1 211648Z 19016KT 11/00 A2991 RMK A01 T01060002  RH  049%=      5-min Rain = 0
KWE1 211649Z 19015KT 11/01 A2991 RMK A01 T01070005  RH  049%=      5-min Rain = 0
KWE1 211650Z 18013G20KT 11/01 A2991 RMK A01 T01080006  RH  049%=      5-min Rain = 0
KWE1 211651Z 18016G22KT 11/01 A2991 RMK A01 T01100007  RH  049%=      5-min Rain = 0
KWE1 211652Z 19016KT 11/00 A2991 RMK A01 T01100004  RH  048%=      5-min Rain = 0
KWE1 211653Z 19019KT 11/01 A2991 RMK A01 T01120005  RH  048%=      5-min Rain = 0
KWE1 211654Z 19016G23KT 11/01 A2991 RMK A01 T01120005  RH  048%=      5-min Rain = 0
KWE1 211655Z 19017KT 11/01 A2991 RMK A01 T01140006  RH  047%=      5-min Rain = 0
KWE1 211656Z 19017KT 12/01 A2991 RMK A01 T01170008  RH  047%=      5-min Rain = 0
KWE1 211657Z 19016G22KT 12/01 A2991 RMK A01 T01190006  RH  046%=      5-min Rain = 0
KWE1 211658Z 19013KT 12/01 A2991 RMK A01 T01200009  RH  047%=      5-min Rain = 0
KWE1 211659Z 18016KT 12/01 A2991 RMK A01 T01210010  RH  047%=      5-min Rain = 0
KWE1 211700Z 19019KT 12/01 A2991 RMK A01 T01210005  RH  045%=      5-min Rain = 0
KWE1 211701Z 19016KT 12/00 A2991 RMK A01 T01190004  RH  045%=      5-min Rain = 0
KWE1 211702Z 19015KT 12/01 A2991 RMK A01 T01190005  RH  045%=      5-min Rain = 0
KWE1 211703Z 19017KT 12/01 A2991 RMK A01 T01190005  RH  045%=      5-min Rain = 0
KWE1 211704Z 18016KT 12/01 A2991 RMK A01 T01200006  RH  046%=      5-min Rain = 0
KWE1 211705Z 19018KT 12/01 A2991 RMK A01 T01210005  RH  045%=      5-min Rain = 0
KWE1 211706Z 19017KT 12/01 A2991 RMK A01 T01210005  RH  045%=      5-min Rain = 0
KWE1 211707Z 19018G23KT 12/00 A2991 RMK A01 T01210004  RH  045%=      5-min Rain = 0
KWE1 211708Z 19016KT 12/01 A2991 RMK A01 T01210005  RH  045%=      5-min Rain = 0
KWE1 211709Z 19019G26KT 12/01 A2991 RMK A01 T01230006  RH  045%=      5-min Rain = 0
KWE1 211710Z 20018G25KT 12/00 A2991 RMK A01 T01230003  RH  044%=      5-min Rain = 0
KWE1 211711Z 20021G26KT 12/00 A2991 RMK A01 T01240002  RH  043%=      5-min Rain = 0
KWE1 211712Z 20018KT 12/00 A2991 RMK A01 T01240000  RH  043%=      5-min Rain = 0
KWE1 211713Z 20020KT 12/M00 A2991 RMK A01 T01241001  RH  042%=      5-min Rain = 0
KWE1 211714Z 20016G21KT 12/00 A2991 RMK A01 T012400-0  RH  042%=      5-min Rain = 0
KWE1 211715Z 19020G25KT 12/00 A2991 RMK A01 T01240002  RH  043%=      5-min Rain = 0
KWE1 211716Z 19020KT 13/M00 A2991 RMK A01 T01251001  RH  042%=      5-min Rain = 0
KWE1 211717Z 20017G24KT 13/00 A2991 RMK A01 T012500-0  RH  042%=      5-min Rain = 0
KWE1 211718Z 19015G20KT 13/00 A2991 RMK A01 T01260004  RH  043%=      5-min Rain = 0
KWE1 211719Z 19017KT 13/01 A2991 RMK A01 T01280005  RH  043%=      5-min Rain = 0
KWE1 211720Z 20018KT 13/01 A2991 RMK A01 T01290005  RH  043%=      5-min Rain = 0
KWE1 211721Z 19018G23KT 13/00 A2991 RMK A01 T01290002  RH  042%=      5-min Rain = 0
KWE1 211722Z 20016G23KT 13/00 A2991 RMK A01 T01290003  RH  042%=      5-min Rain = 0
KWE1 211723Z 20016G22KT 13/00 A2991 RMK A01 T01290003  RH  042%=      5-min Rain = 0
KWE1 211724Z 20013KT 13/01 A2991 RMK A01 T01300006  RH  043%=      5-min Rain = 0
KWE1 211725Z 20014KT 13/01 A2991 RMK A01 T01310007  RH  043%=      5-min Rain = 0
KWE1 211726Z 19018KT 13/01 A2991 RMK A01 T01320007  RH  042%=      5-min Rain = 0
KWE1 211727Z 19016KT 13/01 A2991 RMK A01 T01320005  RH  042%=      5-min Rain = 0
KWE1 211728Z 19016KT 13/01 A2991 RMK A01 T01340006  RH  042%=      5-min Rain = 0
KWE1 211729Z 19017KT 14/01 A2991 RMK A01 T01350007  RH  042%=      5-min Rain = 0
KWE1 211730Z 19017KT 14/01 A2991 RMK A01 T01350007  RH  042%=      5-min Rain = 0
KWE1 211731Z 20016G21KT 14/01 A2991 RMK A01 T01350005  RH  041%=      5-min Rain = 0
KWE1 211732Z 18016G21KT 14/01 A2991 RMK A01 T01370009  RH  042%=      5-min Rain = 0
KWE1 211733Z 19018G23KT 14/01 A299 RMK A01 T01390009  RH  041%=      5-min Rain = 0
KWE1 211734Z 20013G18KT 14/01 A2991 RMK A01 T01390010  RH  041%=      5-min Rain = 0
KWE1 211735Z 19016KT 14/01 A2991 RMK A01 T01390011  RH  042%=      5-min Rain = 0
KWE1 211736Z 19015G22KT 14/01 A299 RMK A01 T01390010  RH  041%=      5-min Rain = 0
KWE1 211737Z 19017KT 14/01 A299 RMK A01 T01390008  RH  041%=      5-min Rain = 0
KWE1 211738Z 19018G23KT 14/01 A299 RMK A01 T01380006  RH  041%=      5-min Rain = 0
KWE1 211739Z 19015KT 14/01 A299 RMK A01 T01380006  RH  040%=      5-min Rain = 0
KWE1 211740Z 19015KT 14/01 A299 RMK A01 T01380006  RH  041%=      5-min Rain = 0
KWE1 211741Z 19016G21KT 14/01 A299 RMK A01 T01370009  RH  041%=      5-min Rain = 0
KWE1 211742Z 19016KT 14/01 A299 RMK A01 T01380005  RH  040%=      5-min Rain = 0
KWE1 211743Z 18014KT 14/01 A299 RMK A01 T01370009  RH  041%=      5-min Rain = 0
KWE1 211744Z 19017KT 14/01 A299 RMK A01 T01380011  RH  042%=      5-min Rain = 0
KWE1 211745Z 19015G20KT 14/01 A299 RMK A01 T01390010  RH  041%=      5-min Rain = 0
KWE1 211746Z 18014KT 14/01 A299 RMK A01 T01400011  RH  042%=      5-min Rain = 0
KWE1 211747Z 19017KT 14/01 A299 RMK A01 T01400011  RH  041%=      5-min Rain = 0
KWE1 211748Z 19016G21KT 14/01 A299 RMK A01 T01410010  RH  041%=      5-min Rain = 0
KWE1 211749Z 19016KT 14/01 A299 RMK A01 T01410010  RH  041%=      5-min Rain = 0
KWE1 211750Z 19013KT 14/01 A299 RMK A01 T01420011  RH  041%=      5-min Rain = 0
KWE1 211751Z 19014KT 14/01 A299 RMK A01 T01430013  RH  041%=      5-min Rain = 0
KWE1 211752Z 19012KT 15/02 A299 RMK A01 T01450015  RH  041%=      5-min Rain = 0
KWE1 211753Z 19017KT 15/01 A2989 RMK A01 T01460014  RH  041%=      5-min Rain = 0
KWE1 211754Z 19018KT 15/01 A2989 RMK A01 T01460011  RH  040%=      5-min Rain = 0
KWE1 211755Z 19018KT 15/01 A2989 RMK A01 T01460011  RH  040%=      5-min Rain = 0
KWE1 211756Z 19017G22KT 15/01 A2989 RMK A01 T01460012  RH  040%=      5-min Rain = 0
KWE1 211757Z 18019KT 15/01 A2989 RMK A01 T01470011  RH  040%=      5-min Rain = 0
KWE1 211758Z 19016KT 15/01 A2989 RMK A01 T01480013  RH  040%=      5-min Rain = 0
KWE1 211759Z 18018KT 15/01 A2989 RMK A01 T01490012  RH  039%=      5-min Rain = 0
KWE1 211800Z 19019G24KT 15/01 A2989 RMK A01 T01490011  RH  039%=      5-min Rain = 0
KWE1 211801Z 18018KT 15/01 A2989 RMK A01 T01490011  RH  039%=      5-min Rain = 0
KWE1 211802Z 18018KT 15/01 A2988 RMK A01 T01500013  RH  039%=      5-min Rain = 0
KWE1 211803Z 18018KT 15/01 A2988 RMK A01 T01510013  RH  039%=      5-min Rain = 0
KWE1 211804Z 18018KT 15/01 A2988 RMK A01 T01520013  RH  039%=      5-min Rain = 0
KWE1 211805Z 18019G24KT 15/01 A2988 RMK A01 T01520013  RH  039%=      5-min Rain = 0
KWE1 211806Z 18019KT 15/01 A2988 RMK A01 T01530012  RH  038%=      5-min Rain = 0
KWE1 211807Z 18021KT 15/01 A2988 RMK A01 T01530011  RH  038%=      5-min Rain = 0
KWE1 211808Z 19022KT 15/01 A2988 RMK A01 T01530010  RH  038%=      5-min Rain = 0
KWE1 211809Z 20020KT 15/01 A2987 RMK A01 T01530009  RH  038%=      5-min Rain = 0
KWE1 211810Z 19013G19KT 15/01 A2988 RMK A01 T01530012  RH  038%=      5-min Rain = 0
KWE1 211811Z 18017G22KT 16/02 A2988 RMK A01 T01550017  RH  039%=      5-min Rain = 0
KWE1 211812Z 18021KT 16/01 A2988 RMK A01 T01550014  RH  038%=      5-min Rain = 0
KWE1 211813Z 19021KT 15/01 A2987 RMK A01 T01540010  RH  038%=      5-min Rain = 0
KWE1 211814Z 18017G22KT 15/01 A2987 RMK A01 T01530011  RH  038%=      5-min Rain = 0
KWE1 211815Z 18020KT 15/01 A2987 RMK A01 T01530012  RH  038%=      5-min Rain = 0
KWE1 211816Z 19017G23KT 15/01 A2987 RMK A01 T01540014  RH  039%=      5-min Rain = 0
KWE1 211817Z 19019G24KT 15/01 A2987 RMK A01 T01540013  RH  038%=      5-min Rain = 0
KWE1 211818Z 19018KT 16/01 A2987 RMK A01 T01550013  RH  038%=      5-min Rain = 0
KWE1 211819Z 19021KT 16/01 A2987 RMK A01 T01550011  RH  038%=      5-min Rain = 0
KWE1 211820Z 19017KT 16/01 A2987 RMK A01 T01550012  RH  038%=      5-min Rain = 0
KWE1 211821Z 19018KT 16/01 A2987 RMK A01 T01550013  RH  038%=      5-min Rain = 0
KWE1 211822Z 19016G21KT 16/01 A2987 RMK A01 T01550013  RH  038%=      5-min Rain = 0
KWE1 211823Z 19016KT 16/02 A2987 RMK A01 T01550016  RH  039%=      5-min Rain = 0
KWE1 211824Z 19017KT 16/01 A2987 RMK A01 T01560014  RH  038%=      5-min Rain = 0
KWE1 211825Z 19017KT 16/02 A2987 RMK A01 T01560015  RH  039%=      5-min Rain = 0
KWE1 211826Z 18017KT 16/02 A2987 RMK A01 T01550015  RH  039%=      5-min Rain = 0
KWE1 211827Z 19016G23KT 16/02 A2987 RMK A01 T01560017  RH  039%=      5-min Rain = 0
KWE1 211828Z 19018G26KT 16/02 A2986 RMK A01 T01570016  RH  039%=      5-min Rain = 0
KWE1 211829Z 18024KT 16/01 A2986 RMK A01 T01570012  RH  037%=      5-min Rain = 0
KWE1 211830Z 19022KT 16/01 A2986 RMK A01 T01570011  RH  037%=      5-min Rain = 0
KWE1 211831Z 18021G26KT 16/01 A2986 RMK A01 T01570011  RH  037%=      5-min Rain = 0
KWE1 211832Z 19019KT 16/01 A2986 RMK A01 T01570011  RH  037%=      5-min Rain = 0
KWE1 211833Z 18014G21KT 16/02 A2986 RMK A01 T01570015  RH  038%=      5-min Rain = 0
KWE1 211834Z 19018G24KT 16/02 A2986 RMK A01 T01580017  RH  038%=      5-min Rain = 0
KWE1 211835Z 19019KT 16/02 A2986 RMK A01 T01590016  RH  038%=      5-min Rain = 0
KWE1 211836Z 18019KT 16/01 A2986 RMK A01 T01580014  RH  038%=      5-min Rain = 0
KWE1 211837Z 19020KT 16/01 A2986 RMK A01 T01580013  RH  037%=      5-min Rain = 0
KWE1 211838Z 18020KT 16/01 A2986 RMK A01 T01570012  RH  037%=      5-min Rain = 0
KWE1 211839Z 18021KT 16/01 A2986 RMK A01 T01580013  RH  037%=      5-min Rain = 0
KWE1 211840Z 19018KT 16/01 A2986 RMK A01 T01590014  RH  037%=      5-min Rain = 0
KWE1 211841Z 18018KT 16/02 A2986 RMK A01 T01600016  RH  038%=      5-min Rain = 0
KWE1 211842Z 18017KT 16/02 A2985 RMK A01 T01610017  RH  038%=      5-min Rain = 0
KWE1 211843Z 18016KT 16/02 A2985 RMK A01 T01630020  RH  038%=      5-min Rain = 0
KWE1 211844Z 18018KT 16/02 A2985 RMK A01 T01640021  RH  038%=      5-min Rain = 0
KWE1 211845Z 18020KT 16/02 A2985 RMK A01 T01640018  RH  037%=      5-min Rain = 0
KWE1 211846Z 18019KT 16/02 A2985 RMK A01 T01630017  RH  037%=      5-min Rain = 0
KWE1 211847Z 19019KT 16/02 A2985 RMK A01 T01630017  RH  037%=      5-min Rain = 0
KWE1 211848Z 18015G23KT 16/02 A2985 RMK A01 T01620018  RH  038%=      5-min Rain = 0
KWE1 211849Z 19014G19KT 16/02 A2985 RMK A01 T01620022  RH  039%=      5-min Rain = 0
KWE1 211850Z 18019G24KT 16/02 A2985 RMK A01 T01640022  RH  039%=      5-min Rain = 0
KWE1 211851Z 18017G22KT 17/02 A2985 RMK A01 T01650021  RH  038%=      5-min Rain = 0
KWE1 211852Z 19017KT 17/02 A2984 RMK A01 T01670023  RH  038%=      5-min Rain = 0
KWE1 211853Z 19016G21KT 17/02 A2984 RMK A01 T01680023  RH  038%=      5-min Rain = 0
KWE1 211854Z 19021KT 17/02 A2984 RMK A01 T01690021  RH  037%=      5-min Rain = 0
KWE1 211855Z 20017KT 17/02 A2984 RMK A01 T01680020  RH  037%=      5-min Rain = 0
KWE1 211856Z 19020G26KT 17/02 A2984 RMK A01 T01670020  RH  037%=      5-min Rain = 0
KWE1 211857Z 19021KT 17/02 A2983 RMK A01 T01670019  RH  037%=      5-min Rain = 0
KWE1 211858Z 19024KT 17/02 A2983 RMK A01 T01670019  RH  037%=      5-min Rain = 0
KWE1 211859Z 19022KT 17/02 A2983 RMK A01 T01660017  RH  036%=      5-min Rain = 0
KWE1 211900Z 19022G27KT 17/02 A2983 RMK A01 T01650017  RH  037%=      5-min Rain = 0
KWE1 211901Z 19018G23KT 17/02 A2983 RMK A01 T01660019  RH  037%=      5-min Rain = 0
KWE1 211902Z 19020G26KT 17/02 A2983 RMK A01 T01680022  RH  037%=      5-min Rain = 0
KWE1 211903Z 19019G25KT 17/02 A2983 RMK A01 T01690020  RH  037%=      5-min Rain = 0
KWE1 211904Z 19021KT 17/02 A2983 RMK A01 T01700021  RH  037%=      5-min Rain = 0
KWE1 211905Z 19018G23KT 17/02 A2983 RMK A01 T01700021  RH  037%=      5-min Rain = 0
KWE1 211906Z 19018G23KT 17/02 A2982 RMK A01 T01700023  RH  037%=      5-min Rain = 0
KWE1 211907Z 19021KT 17/02 A2982 RMK A01 T01700022  RH  037%=      5-min Rain = 0
KWE1 211908Z 18022G28KT 17/02 A2982 RMK A01 T01700022  RH  037%=      5-min Rain = 0
KWE1 211909Z 19020G25KT 17/02 A2982 RMK A01 T01700019  RH  036%=      5-min Rain = 0
KWE1 211910Z 18017G25KT 17/02 A2982 RMK A01 T01700024  RH  038%=      5-min Rain = 0
KWE1 211911Z 18020KT 17/02 A2982 RMK A01 T01710024  RH  037%=      5-min Rain = 0
KWE1 211912Z 18021KT 17/02 A2982 RMK A01 T01710023  RH  037%=      5-min Rain = 0
KWE1 211913Z 19016G21KT 17/03 A2982 RMK A01 T01710025  RH  038%=      5-min Rain = 0
KWE1 211914Z 19018G23KT 17/03 A2982 RMK A01 T01710026  RH  038%=      5-min Rain = 0
KWE1 211915Z 19017G22KT 17/03 A2982 RMK A01 T01720025  RH  037%=      5-min Rain = 0
KWE1 211916Z 19017KT 17/03 A2982 RMK A01 T01720026  RH  038%=      5-min Rain = 0
KWE1 211917Z 19018G24KT 17/03 A2982 RMK A01 T01720026  RH  038%=      5-min Rain = 0
KWE1 211918Z 19018G23KT 17/02 A2982 RMK A01 T01720023  RH  037%=      5-min Rain = 0
KWE1 211919Z 19017KT 17/03 A2982 RMK A01 T01720026  RH  037%=      5-min Rain = 0
KWE1 211920Z 19016KT 17/03 A2982 RMK A01 T01740025  RH  037%=      5-min Rain = 0
KWE1 211921Z 19017KT 18/03 A2982 RMK A01 T01760027  RH  037%=      5-min Rain = 0
KWE1 211922Z 19020KT 18/02 A2981 RMK A01 T01780023  RH  036%=      5-min Rain = 0
KWE1 211923Z 19019KT 18/02 A2981 RMK A01 T01770022  RH  035%=      5-min Rain = 0
KWE1 211924Z 19019KT 18/02 A2981 RMK A01 T01770024  RH  036%=      5-min Rain = 0
KWE1 211925Z 18015KT 18/02 A2981 RMK A01 T01770024  RH  036%=      5-min Rain = 0
KWE1 211926Z 19021KT 18/02 A2981 RMK A01 T01780023  RH  035%=      5-min Rain = 0
KWE1 211927Z 19023KT 18/02 A2981 RMK A01 T01770019  RH  035%=      5-min Rain = 0
KWE1 211928Z 19019KT 18/02 A2981 RMK A01 T01750020  RH  035%=      5-min Rain = 0
KWE1 211929Z 19021G26KT 18/02 A2981 RMK A01 T01750022  RH  036%=      5-min Rain = 0
KWE1 211930Z 19017KT 18/02 A2981 RMK A01 T01750021  RH  035%=      5-min Rain = 0
KWE1 211931Z 18018G24KT 18/02 A2981 RMK A01 T01760024  RH  036%=      5-min Rain = 0
KWE1 211932Z 19018G25KT 18/02 A2981 RMK A01 T01780024  RH  036%=      5-min Rain = 0
KWE1 211933Z 19019KT 18/02 A2981 RMK A01 T01790024  RH  036%=      5-min Rain = 0
KWE1 211934Z 19020G26KT 18/03 A2981 RMK A01 T01800026  RH  036%=      5-min Rain = 0
KWE1 211935Z 19021G26KT 18/02 A2981 RMK A01 T01810023  RH  035%=      5-min Rain = 0
KWE1 211936Z 18020G26KT 18/02 A2981 RMK A01 T01810023  RH  035%=      5-min Rain = 0
KWE1 211937Z 19020G26KT 18/02 A2981 RMK A01 T01810024  RH  035%=      5-min Rain = 0
KWE1 211938Z 19015KT 18/03 A2981 RMK A01 T01810027  RH  036%=      5-min Rain = 0
KWE1 211939Z 19015KT 18/03 A2981 RMK A01 T01830033  RH  037%=      5-min Rain = 0
KWE1 211940Z 19017KT 18/03 A2981 RMK A01 T01840032  RH  036%=      5-min Rain = 0
KWE1 211941Z 19019KT 18/03 A298 RMK A01 T01830030  RH  036%=      5-min Rain = 0
KWE1 211942Z 18021G28KT 18/03 A298 RMK A01 T01810028  RH  036%=      5-min Rain = 0
KWE1 211943Z 19022KT 18/03 A298 RMK A01 T01780025  RH  036%=      5-min Rain = 0
KWE1 211944Z 18021G27KT 18/03 A298 RMK A01 T01770025  RH  036%=      5-min Rain = 0
KWE1 211945Z 19016KT 18/03 A298 RMK A01 T01760029  RH  037%=      5-min Rain = 0
KWE1 211946Z 19018KT 18/03 A298 RMK A01 T01780031  RH  037%=      5-min Rain = 0
KWE1 211947Z 19019G24KT 18/03 A298 RMK A01 T01790030  RH  037%=      5-min Rain = 0
KWE1 211948Z 18019G25KT 18/03 A298 RMK A01 T01800030  RH  037%=      5-min Rain = 0
KWE1 211949Z 19021G29KT 18/03 A2979 RMK A01 T01810030  RH  036%=      5-min Rain = 0
KWE1 211950Z 19019G24KT 18/03 A2979 RMK A01 T01810028  RH  036%=      5-min Rain = 0
KWE1 211951Z 18015KT 18/03 A298 RMK A01 T01810032  RH  037%=      5-min Rain = 0
KWE1 211952Z 19024KT 18/03 A2979 RMK A01 T01820028  RH  036%=      5-min Rain = 0
KWE1 211953Z 19023G28KT 18/02 A2979 RMK A01 T01820024  RH  035%=      5-min Rain = 0
KWE1 211954Z 19020KT 18/03 A2979 RMK A01 T01830028  RH  036%=      5-min Rain = 0
KWE1 211955Z 19022G27KT 18/03 A2979 RMK A01 T01840027  RH  035%=      5-min Rain = 0
KWE1 211956Z 19021KT 18/03 A2979 RMK A01 T01840026  RH  035%=      5-min Rain = 0
KWE1 211957Z 19018G26KT 18/03 A2979 RMK A01 T01840029  RH  036%=      5-min Rain = 0
KWE1 211958Z 20020G27KT 18/03 A2979 RMK A01 T01840027  RH  035%=      5-min Rain = 0
KWE1 211959Z 19022G29KT 19/03 A2979 RMK A01 T01850028  RH  035%=      5-min Rain = 0
KWE1 212000Z 20025G30KT 19/02 A2979 RMK A01 T01860023  RH  034%=      5-min Rain = 0
KWE1 212001Z 19017G23KT 19/03 A2979 RMK A01 T01860026  RH  035%=      5-min Rain = 0
KWE1 212002Z 19022G33KT 19/03 A2979 RMK A01 T01860030  RH  035%=      5-min Rain = 0
KWE1 212003Z 19021G27KT 19/02 A2979 RMK A01 T01860023  RH  034%=      5-min Rain = 0
KWE1 212004Z 19021G26KT 19/02 A2979 RMK A01 T01860022  RH  033%=      5-min Rain = 0
KWE1 212005Z 20020KT 19/02 A2979 RMK A01 T01870024  RH  034%=      5-min Rain = 0
KWE1 212006Z 20021KT 19/02 A2979 RMK A01 T01880024  RH  034%=      5-min Rain = 0
KWE1 212007Z 20024KT 19/02 A2979 RMK A01 T01880022  RH  033%=      5-min Rain = 0
KWE1 212008Z 20019G26KT 19/02 A2979 RMK A01 T01880023  RH  033%=      5-min Rain = 0
KWE1 212009Z 20018G23KT 19/03 A2979 RMK A01 T01880025  RH  034%=      5-min Rain = 0
KWE1 212010Z 19019G25KT 19/03 A2979 RMK A01 T01890027  RH  034%=      5-min Rain = 0
KWE1 212011Z 19019KT 19/03 A2979 RMK A01 T01890028  RH  034%=      5-min Rain = 0
KWE1 212012Z 19018G25KT 19/03 A2979 RMK A01 T01890031  RH  035%=      5-min Rain = 0
KWE1 212013Z 20018KT 19/03 A2978 RMK A01 T01890028  RH  034%=      5-min Rain = 0
KWE1 212014Z 19017G24KT 19/03 A2978 RMK A01 T01890028  RH  034%=      5-min Rain = 0
KWE1 212015Z 19022KT 19/03 A2978 RMK A01 T01900027  RH  034%=      5-min Rain = 0
KWE1 212016Z 19020G25KT 19/03 A2978 RMK A01 T01890028  RH  034%=      5-min Rain = 0
KWE1 212017Z 19021G26KT 19/03 A2978 RMK A01 T01890029  RH  034%=      5-min Rain = 0
KWE1 212018Z 19024G29KT 19/03 A2978 RMK A01 T01890025  RH  034%=      5-min Rain = 0
KWE1 212019Z 19017G23KT 19/03 A2978 RMK A01 T01880027  RH  034%=      5-min Rain = 0
KWE1 212020Z 19020G26KT 19/03 A2977 RMK A01 T01890030  RH  035%=      5-min Rain = 0
KWE1 212021Z 19019KT 19/03 A2977 RMK A01 T01900027  RH  034%=      5-min Rain = 0
KWE1 212022Z 19020KT 19/03 A2977 RMK A01 T01900029  RH  034%=      5-min Rain = 0
KWE1 212023Z 19019G25KT 19/03 A2977 RMK A01 T01900030  RH  035%=      5-min Rain = 0
KWE1 212024Z 19024KT 19/03 A2977 RMK A01 T01920029  RH  034%=      5-min Rain = 0
KWE1 212025Z 19024G29KT 19/03 A2977 RMK A01 T01920026  RH  033%=      5-min Rain = 0
KWE1 212026Z 19026G33KT 19/02 A2976 RMK A01 T01920023  RH  033%=      5-min Rain = 0
KWE1 212027Z 19025KT 19/02 A2976 RMK A01 T01920022  RH  032%=      5-min Rain = 0
KWE1 212028Z 20021G26KT 19/02 A2977 RMK A01 T01920023  RH  033%=      5-min Rain = 0
KWE1 212029Z 20016G21KT 19/03 A2977 RMK A01 T01940027  RH  033%=      5-min Rain = 0
KWE1 212030Z 19019G26KT 20/03 A2977 RMK A01 T01960031  RH  033%=      5-min Rain = 0
KWE1 212031Z 20021G26KT 20/03 A2977 RMK A01 T01960027  RH  033%=      5-min Rain = 0
KWE1 212032Z 19020KT 20/03 A2977 RMK A01 T01960028  RH  033%=      5-min Rain = 0
KWE1 212033Z 20020G25KT 20/03 A2976 RMK A01 T01960029  RH  033%=      5-min Rain = 0
KWE1 212034Z 19020KT 20/03 A2976 RMK A01 T01960025  RH  032%=      5-min Rain = 0
KWE1 212035Z 20021G26KT 20/02 A2976 RMK A01 T01950024  RH  032%=      5-min Rain = 0
KWE1 212036Z 19019KT 20/03 A2977 RMK A01 T01950025  RH  032%=      5-min Rain = 0
KWE1 212037Z 19023G30KT 20/03 A2976 RMK A01 T01960028  RH  033%=      5-min Rain = 0
KWE1 212038Z 18024KT 20/02 A2976 RMK A01 T01950024  RH  032%=      5-min Rain = 0
KWE1 212039Z 18019G25KT 19/03 A2977 RMK A01 T01940027  RH  033%=      5-min Rain = 0
KWE1 212040Z 19017G23KT 19/03 A2977 RMK A01 T01940029  RH  033%=      5-min Rain = 0
KWE1 212041Z 18019G25KT 20/03 A2977 RMK A01 T01950028  RH  033%=      5-min Rain = 0
KWE1 212042Z 19021G27KT 20/03 A2976 RMK A01 T01950027  RH  033%=      5-min Rain = 0
KWE1 212043Z 19021G28KT 20/03 A2976 RMK A01 T01950027  RH  033%=      5-min Rain = 0
KWE1 212044Z 19023KT 20/03 A2976 RMK A01 T01950025  RH  032%=      5-min Rain = 0
KWE1 212045Z 19019KT 19/03 A2976 RMK A01 T01940025  RH  032%=      5-min Rain = 0
KWE1 212046Z 19017G23KT 19/03 A2976 RMK A01 T01940027  RH  033%=      5-min Rain = 0
KWE1 212047Z 19020KT 20/03 A2976 RMK A01 T01950026  RH  033%=      5-min Rain = 0
KWE1 212048Z 19020KT 20/03 A2976 RMK A01 T01950027  RH  033%=      5-min Rain = 0
KWE1 212049Z 19020KT 20/03 A2976 RMK A01 T01950027  RH  033%=      5-min Rain = 0
KWE1 212050Z 19020G25KT 20/03 A2976 RMK A01 T01950026  RH  033%=      5-min Rain = 0
KWE1 212051Z 19021G30KT 20/03 A2976 RMK A01 T01950027  RH  033%=      5-min Rain = 0
KWE1 212052Z 19024KT 19/02 A2976 RMK A01 T01940024  RH  032%=      5-min Rain = 0
KWE1 212053Z 20022G27KT 19/02 A2976 RMK A01 T01920021  RH  032%=      5-min Rain = 0
KWE1 212054Z 20018G24KT 19/02 A2976 RMK A01 T01910023  RH  033%=      5-min Rain = 0
KWE1 212055Z 19018G23KT 19/03 A2976 RMK A01 T01910025  RH  033%=      5-min Rain = 0
KWE1 212056Z 19020G27KT 19/03 A2976 RMK A01 T01910026  RH  033%=      5-min Rain = 0
KWE1 212057Z 19021G26KT 19/02 A2976 RMK A01 T01910024  RH  033%=      5-min Rain = 0
KWE1 212058Z 19023G28KT 19/02 A2976 RMK A01 T01920024  RH  033%=      5-min Rain = 0
KWE1 212059Z 19017G24KT 19/03 A2976 RMK A01 T01910025  RH  033%=      5-min Rain = 0
KWE1 212100Z 19019G24KT 19/03 A2976 RMK A01 T01920029  RH  034%=      5-min Rain = 0
KWE1 212101Z 19017G22KT 19/03 A2975 RMK A01 T01920029  RH  034%=      5-min Rain = 0
KWE1 212102Z 19015G22KT 19/03 A2976 RMK A01 T01930030  RH  034%=      5-min Rain = 0
KWE1 212103Z 19018G24KT 19/03 A2975 RMK A01 T01940031  RH  034%=      5-min Rain = 0
KWE1 212104Z 19018G23KT 19/03 A2975 RMK A01 T01940031  RH  034%=      5-min Rain = 0
KWE1 212105Z 18019KT 19/03 A2975 RMK A01 T01940030  RH  034%=      5-min Rain = 0
KWE1 212106Z 18021KT 19/03 A2975 RMK A01 T01940028  RH  033%=      5-min Rain = 0
KWE1 212107Z 19026KT 19/03 A2975 RMK A01 T01940025  RH  033%=      5-min Rain = 0
KWE1 212108Z 19020G27KT 19/02 A2975 RMK A01 T01940023  RH  032%=      5-min Rain = 0
KWE1 212109Z 19024G31KT 19/02 A2975 RMK A01 T01930024  RH  032%=      5-min Rain = 0
KWE1 212110Z 19023G28KT 19/02 A2975 RMK A01 T01930022  RH  032%=      5-min Rain = 0
KWE1 212111Z 19024KT 19/02 A2975 RMK A01 T01930023  RH  032%=      5-min Rain = 0
KWE1 212112Z 19023KT 19/02 A2975 RMK A01 T01930022  RH  032%=      5-min Rain = 0
KWE1 212113Z 19019G26KT 19/02 A2975 RMK A01 T01940024  RH  032%=      5-min Rain = 0
KWE1 212114Z 19023G28KT 19/02 A2975 RMK A01 T01940024  RH  032%=      5-min Rain = 0
KWE1 212115Z 19022G28KT 19/02 A2975 RMK A01 T01940021  RH  032%=      5-min Rain = 0
KWE1 212116Z 19019KT 20/03 A2976 RMK A01 T01950025  RH  032%=      5-min Rain = 0
KWE1 212117Z 19017KT 20/03 A2976 RMK A01 T01950027  RH  033%=      5-min Rain = 0
KWE1 212118Z 18019G25KT 20/03 A2976 RMK A01 T01960029  RH  033%=      5-min Rain = 0
KWE1 212119Z 19018KT 20/03 A2976 RMK A01 T01960027  RH  033%=      5-min Rain = 0
KWE1 212120Z 19019KT 20/03 A2976 RMK A01 T01950026  RH  032%=      5-min Rain = 0
KWE1 212121Z 19017KT 19/03 A2976 RMK A01 T01940028  RH  033%=      5-min Rain = 0
KWE1 212122Z 18017KT 19/03 A2976 RMK A01 T01940026  RH  033%=      5-min Rain = 0
KWE1 212123Z 18018G23KT 19/03 A2975 RMK A01 T01940027  RH  033%=      5-min Rain = 0
KWE1 212124Z 19019KT 19/03 A2975 RMK A01 T01940027  RH  033%=      5-min Rain = 0
KWE1 212125Z 18017G22KT 19/03 A2975 RMK A01 T01940028  RH  033%=      5-min Rain = 0
KWE1 212126Z 18022KT 19/03 A2975 RMK A01 T01940028  RH  033%=      5-min Rain = 0
KWE1 212127Z 18018G23KT 19/03 A2975 RMK A01 T01940027  RH  033%=      5-min Rain = 0
KWE1 212128Z 19018G23KT 20/03 A2975 RMK A01 T01950027  RH  033%=      5-min Rain = 0
KWE1 212129Z 19018KT 20/03 A2975 RMK A01 T01960027  RH  033%=      5-min Rain = 0
KWE1 212130Z 19013KT 20/03 A2975 RMK A01 T01950030  RH  033%=      5-min Rain = 0
KWE1 212131Z 19017G25KT 20/03 A2975 RMK A01 T01970033  RH  034%=      5-min Rain = 0
KWE1 212132Z 19026G31KT 20/03 A2974 RMK A01 T01970025  RH  032%=      5-min Rain = 0
KWE1 212133Z 19026KT 20/02 A2974 RMK A01 T01950022  RH  032%=      5-min Rain = 0
KWE1 212134Z 19022G27KT 19/02 A2974 RMK A01 T01940023  RH  032%=      5-min Rain = 0
KWE1 212135Z 19018KT 19/03 A2974 RMK A01 T01940025  RH  033%=      5-min Rain = 0
KWE1 212136Z 19018G24KT 19/03 A2974 RMK A01 T01940029  RH  033%=      5-min Rain = 0
KWE1 212137Z 19021G27KT 20/03 A2974 RMK A01 T01950029  RH  033%=      5-min Rain = 0
KWE1 212138Z 19022G27KT 20/03 A2974 RMK A01 T01950025  RH  032%=      5-min Rain = 0
KWE1 212139Z 19024KT 19/02 A2974 RMK A01 T01940023  RH  032%=      5-min Rain = 0
KWE1 212140Z 18026KT 19/02 A2974 RMK A01 T01930022  RH  032%=      5-min Rain = 0
KWE1 212141Z 19026KT 19/02 A2974 RMK A01 T01930020  RH  032%=      5-min Rain = 0
KWE1 212142Z 19023G29KT 19/02 A2974 RMK A01 T01920022  RH  032%=      5-min Rain = 0
KWE1 212143Z 19023KT 19/02 A2974 RMK A01 T01920021  RH  032%=      5-min Rain = 0
KWE1 212144Z 19019G27KT 19/03 A2974 RMK A01 T01930025  RH  033%=      5-min Rain = 0
KWE1 212145Z 19024G29KT 19/02 A2974 RMK A01 T01930023  RH  032%=      5-min Rain = 0
KWE1 212146Z 19025G30KT 19/02 A2974 RMK A01 T01930021  RH  032%=      5-min Rain = 0
KWE1 212147Z 19021G27KT 19/02 A2974 RMK A01 T01930023  RH  032%=      5-min Rain = 0
KWE1 212148Z 18022G27KT 19/02 A2974 RMK A01 T01930022  RH  032%=      5-min Rain = 0
KWE1 212149Z 19024G29KT 19/02 A2973 RMK A01 T01940023  RH  032%=      5-min Rain = 0
KWE1 212150Z 19024G29KT 19/02 A2973 RMK A01 T01940022  RH  032%=      5-min Rain = 0
KWE1 212151Z 19022KT 19/02 A2973 RMK A01 T01940022  RH  032%=      5-min Rain = 0
KWE1 212152Z 19025G30KT 19/02 A2973 RMK A01 T01940023  RH  032%=      5-min Rain = 0
KWE1 212153Z 19025G33KT 19/02 A2973 RMK A01 T01940021  RH  032%=      5-min Rain = 0
KWE1 212154Z 19026G31KT 19/02 A2973 RMK A01 T01940018  RH  031%=      5-min Rain = 0
KWE1 212155Z 19023G29KT 19/02 A2973 RMK A01 T01930019  RH  031%=      5-min Rain = 0
KWE1 212156Z 19022G28KT 19/02 A2973 RMK A01 T01930020  RH  032%=      5-min Rain = 0
KWE1 212157Z 19020G25KT 19/02 A2973 RMK A01 T01920023  RH  032%=      5-min Rain = 0
KWE1 212158Z 19021KT 19/02 A2973 RMK A01 T01920024  RH  033%=      5-min Rain = 0
KWE1 212159Z 19018G24KT 19/02 A2973 RMK A01 T01920024  RH  033%=      5-min Rain = 0
KWE1 212200Z 19018KT 19/03 A2973 RMK A01 T01930025  RH  033%=      5-min Rain = 0
KWE1 212201Z 19021KT 19/02 A2973 RMK A01 T01930023  RH  032%=      5-min Rain = 0
KWE1 212202Z 19017G22KT 19/03 A2973 RMK A01 T01930025  RH  033%=      5-min Rain = 0
KWE1 212203Z 18021G26KT 19/02 A2973 RMK A01 T01940024  RH  032%=      5-min Rain = 0
KWE1 212204Z 18023KT 19/02 A2973 RMK A01 T01940021  RH  031%=      5-min Rain = 0
KWE1 212205Z 18023G30KT 19/02 A2973 RMK A01 T01940020  RH  031%=      5-min Rain = 0
KWE1 212206Z 18021G26KT 19/02 A2973 RMK A01 T01940020  RH  031%=      5-min Rain = 0
KWE1 212207Z 18020KT 20/02 A2973 RMK A01 T01950022  RH  032%=      5-min Rain = 0
KWE1 212208Z 18022G27KT 19/02 A2973 RMK A01 T01940021  RH  031%=      5-min Rain = 0
KWE1 212209Z 18022G27KT 19/02 A2973 RMK A01 T01940021  RH  032%=      5-min Rain = 0
KWE1 212210Z 18023KT 19/02 A2973 RMK A01 T01930019  RH  031%=      5-min Rain = 0
KWE1 212211Z 18022KT 19/02 A2973 RMK A01 T01920019  RH  031%=      5-min Rain = 0
KWE1 212212Z 18020KT 19/02 A2973 RMK A01 T01920020  RH  032%=      5-min Rain = 0
KWE1 212213Z 18021G27KT 19/02 A2973 RMK A01 T01910021  RH  032%=      5-min Rain = 0
KWE1 212214Z 18023G31KT 19/02 A2973 RMK A01 T01910021  RH  032%=      5-min Rain = 0
KWE1 212215Z 19023G30KT 19/02 A2973 RMK A01 T01920019  RH  032%=      5-min Rain = 0
KWE1 212216Z 19022G28KT 19/02 A2973 RMK A01 T01920020  RH  032%=      5-min Rain = 0
KWE1 212217Z 18024KT 19/02 A2973 RMK A01 T01930019  RH  031%=      5-min Rain = 0
KWE1 212218Z 18021G26KT 19/02 A2973 RMK A01 T01930019  RH  031%=      5-min Rain = 0
KWE1 212219Z 18019KT 19/02 A2973 RMK A01 T01940021  RH  032%=      5-min Rain = 0
KWE1 212220Z 18021G26KT 19/02 A2973 RMK A01 T01930021  RH  032%=      5-min Rain = 0
KWE1 212221Z 19019KT 19/02 A2973 RMK A01 T01930020  RH  032%=      5-min Rain = 0
KWE1 212222Z 19017G22KT 19/02 A2973 RMK A01 T01930024  RH  032%=      5-min Rain = 0
KWE1 212223Z 19016G21KT 19/03 A2973 RMK A01 T01930026  RH  033%=      5-min Rain = 0
KWE1 212224Z 19016KT 19/03 A2973 RMK A01 T01930027  RH  033%=      5-min Rain = 0
KWE1 212225Z 18016G21KT 19/03 A2973 RMK A01 T01930027  RH  033%=      5-min Rain = 0
KWE1 212226Z 17017KT 19/03 A2973 RMK A01 T01920025  RH  033%=      5-min Rain = 0
KWE1 212227Z 18014KT 19/03 A2973 RMK A01 T01920026  RH  033%=      5-min Rain = 0
KWE1 212228Z 18018KT 19/03 A2973 RMK A01 T01910027  RH  033%=      5-min Rain = 0
KWE1 212229Z 18018G23KT 19/02 A2973 RMK A01 T01910022  RH  033%=      5-min Rain = 0
KWE1 212230Z 17017G22KT 19/02 A2973 RMK A01 T01900023  RH  033%=      5-min Rain = 0
KWE1 212231Z 18019G25KT 19/02 A2973 RMK A01 T01900021  RH  032%=      5-min Rain = 0
KWE1 212232Z 18017G22KT 19/02 A2973 RMK A01 T01890021  RH  033%=      5-min Rain = 0
KWE1 212233Z 18018KT 19/02 A2973 RMK A01 T01890022  RH  033%=      5-min Rain = 0
KWE1 212234Z 18019G25KT 19/02 A2973 RMK A01 T01880022  RH  033%=      5-min Rain = 0
KWE1 212235Z 18018G24KT 19/02 A2973 RMK A01 T01880020  RH  033%=      5-min Rain = 0
KWE1 212236Z 17017KT 19/02 A2973 RMK A01 T01890022  RH  033%=      5-min Rain = 0
KWE1 212237Z 17014KT 19/02 A2973 RMK A01 T01890022  RH  033%=      5-min Rain = 0
KWE1 212238Z 17016KT 19/02 A2973 RMK A01 T01890024  RH  033%=      5-min Rain = 0
KWE1 212239Z 17016KT 19/02 A2973 RMK A01 T01880023  RH  033%=      5-min Rain = 0
KWE1 212240Z 17016KT 19/02 A2973 RMK A01 T01890024  RH  033%=      5-min Rain = 0
KWE1 212241Z 17017KT 19/02 A2973 RMK A01 T01880024  RH  034%=      5-min Rain = 0
KWE1 212242Z 18019KT 19/02 A2973 RMK A01 T01880022  RH  033%=      5-min Rain = 0
KWE1 212243Z 18017KT 19/02 A2973 RMK A01 T01880021  RH  033%=      5-min Rain = 0
KWE1 212244Z 17015G21KT 19/02 A2973 RMK A01 T01880023  RH  033%=      5-min Rain = 0
KWE1 212245Z 17014KT 19/02 A2973 RMK A01 T01870024  RH  034%=      5-min Rain = 0
KWE1 212246Z 17016KT 19/03 A2973 RMK A01 T01870025  RH  034%=      5-min Rain = 0
KWE1 212247Z 18019KT 19/02 A2973 RMK A01 T01880020  RH  033%=      5-min Rain = 0
KWE1 212248Z 18015KT 19/02 A2973 RMK A01 T01890020  RH  032%=      5-min Rain = 0
KWE1 212249Z 17015KT 19/02 A2973 RMK A01 T01900022  RH  033%=      5-min Rain = 0
KWE1 212250Z 17014KT 19/02 A2973 RMK A01 T01890023  RH  033%=      5-min Rain = 0
KWE1 212251Z 17015KT 19/02 A2973 RMK A01 T01890024  RH  033%=      5-min Rain = 0
KWE1 212252Z 17016KT 19/02 A2973 RMK A01 T01890023  RH  033%=      5-min Rain = 0
KWE1 212253Z 17016G21KT 19/02 A2973 RMK A01 T01880021  RH  033%=      5-min Rain = 0
KWE1 212254Z 17015KT 19/02 A2973 RMK A01 T01880021  RH  033%=      5-min Rain = 0
KWE1 212255Z 17016KT 19/02 A2973 RMK A01 T01870022  RH  033%=      5-min Rain = 0
KWE1 212256Z 18015G20KT 19/02 A2973 RMK A01 T01870022  RH  033%=      5-min Rain = 0
KWE1 212257Z 17016KT 19/02 A2973 RMK A01 T01860022  RH  033%=      5-min Rain = 0
KWE1 212258Z 17014G20KT 19/02 A2973 RMK A01 T01850022  RH  033%=      5-min Rain = 0
KWE1 212259Z 18019KT 19/02 A2973 RMK A01 T01850021  RH  033%=      5-min Rain = 0
KWE1 212300Z 18016KT 19/02 A2973 RMK A01 T01850020  RH  033%=      5-min Rain = 0
KWE1 212301Z 17015KT 18/02 A2973 RMK A01 T01840021  RH  034%=      5-min Rain = 0
KWE1 212302Z 18018KT 18/02 A2973 RMK A01 T01840021  RH  034%=      5-min Rain = 0
KWE1 212303Z 18016KT 18/02 A2973 RMK A01 T01830020  RH  034%=      5-min Rain = 0
KWE1 212304Z 18017KT 18/02 A2973 RMK A01 T01830019  RH  033%=      5-min Rain = 0
KWE1 212305Z 17012KT 18/02 A2973 RMK A01 T01820021  RH  034%=      5-min Rain = 0
KWE1 212306Z 17012KT 18/02 A2973 RMK A01 T01810023  RH  035%=      5-min Rain = 0
KWE1 212307Z 17015KT 18/02 A2973 RMK A01 T01790022  RH  035%=      5-min Rain = 0
KWE1 212308Z 17014KT 18/02 A2973 RMK A01 T01790022  RH  035%=      5-min Rain = 0
KWE1 212309Z 17014G19KT 18/02 A2973 RMK A01 T01780022  RH  035%=      5-min Rain = 0
KWE1 212310Z 18016KT 18/02 A2973 RMK A01 T01770021  RH  035%=      5-min Rain = 0
KWE1 212311Z 18018KT 18/02 A2973 RMK A01 T01770019  RH  035%=      5-min Rain = 0
KWE1 212312Z 18017G23KT 18/02 A2973 RMK A01 T01770018  RH  034%=      5-min Rain = 0
KWE1 212313Z 18018KT 18/02 A2973 RMK A01 T01780018  RH  034%=      5-min Rain = 0
KWE1 212314Z 18015KT 18/02 A2973 RMK A01 T01780018  RH  034%=      5-min Rain = 0
KWE1 212315Z 18019G24KT 18/02 A2973 RMK A01 T01770018  RH  034%=      5-min Rain = 0
KWE1 212316Z 18018G24KT 18/02 A2973 RMK A01 T01770018  RH  034%=      5-min Rain = 0
KWE1 212317Z 18018KT 18/02 A2973 RMK A01 T01770018  RH  034%=      5-min Rain = 0
KWE1 212318Z 18016G21KT 18/02 A2973 RMK A01 T01760018  RH  035%=      5-min Rain = 0
KWE1 212319Z 18020G25KT 18/02 A2973 RMK A01 T01760018  RH  035%=      5-min Rain = 0
KWE1 212320Z 18017KT 18/02 A2973 RMK A01 T01760018  RH  035%=      5-min Rain = 0
KWE1 212321Z 18016KT 18/02 A2973 RMK A01 T01760019  RH  035%=      5-min Rain = 0
KWE1 212322Z 18014KT 18/02 A2973 RMK A01 T01750020  RH  035%=      5-min Rain = 0
KWE1 212323Z 18017KT 17/02 A2973 RMK A01 T01740020  RH  036%=      5-min Rain = 0
KWE1 212324Z 18016KT 17/02 A2973 RMK A01 T01730019  RH  035%=      5-min Rain = 0
KWE1 212325Z 18014KT 17/02 A2973 RMK A01 T01730020  RH  036%=      5-min Rain = 0
KWE1 212326Z 18017KT 17/02 A2973 RMK A01 T01720021  RH  036%=      5-min Rain = 0
KWE1 212327Z 18016KT 17/02 A2972 RMK A01 T01720020  RH  036%=      5-min Rain = 0
KWE1 212328Z 18017G22KT 17/02 A2972 RMK A01 T01720020  RH  036%=      5-min Rain = 0
KWE1 212329Z 18016KT 17/02 A2972 RMK A01 T01710020  RH  036%=      5-min Rain = 0
KWE1 212330Z 19019KT 17/02 A2972 RMK A01 T01710020  RH  036%=      5-min Rain = 0
KWE1 212331Z 18018G24KT 17/02 A2972 RMK A01 T01710019  RH  036%=      5-min Rain = 0
KWE1 212332Z 18019G26KT 17/02 A2972 RMK A01 T01720019  RH  036%=      5-min Rain = 0
KWE1 212333Z 18018G24KT 17/02 A2972 RMK A01 T01730019  RH  035%=      5-min Rain = 0
KWE1 212334Z 18017KT 17/02 A2972 RMK A01 T01730020  RH  036%=      5-min Rain = 0
KWE1 212335Z 18017KT 17/02 A2972 RMK A01 T01720020  RH  036%=      5-min Rain = 0
KWE1 212336Z 18018KT 17/02 A2972 RMK A01 T01710020  RH  036%=      5-min Rain = 0
KWE1 212337Z 18019G26KT 17/02 A2972 RMK A01 T01710020  RH  036%=      5-min Rain = 0
KWE1 212338Z 18019KT 17/02 A2972 RMK A01 T01710019  RH  036%=      5-min Rain = 0
KWE1 212339Z 19017G22KT 17/02 A2972 RMK A01 T01710019  RH  036%=      5-min Rain = 0
KWE1 212340Z 18018KT 17/02 A2972 RMK A01 T01710020  RH  036%=      5-min Rain = 0
KWE1 212341Z 18017KT 17/02 A2972 RMK A01 T01700021  RH  037%=      5-min Rain = 0
KWE1 212342Z 19019KT 17/02 A2972 RMK A01 T01700019  RH  036%=      5-min Rain = 0
KWE1 212343Z 18017KT 17/02 A2972 RMK A01 T01700019  RH  036%=      5-min Rain = 0
KWE1 212344Z 18017KT 17/02 A2972 RMK A01 T01700020  RH  036%=      5-min Rain = 0
KWE1 212345Z 18017KT 17/02 A2973 RMK A01 T01700020  RH  037%=      5-min Rain = 0
KWE1 212346Z 18017G22KT 17/02 A2972 RMK A01 T01690020  RH  037%=      5-min Rain = 0
KWE1 212347Z 18018KT 17/02 A2972 RMK A01 T01690021  RH  037%=      5-min Rain = 0
KWE1 212348Z 18016KT 17/02 A2973 RMK A01 T01680021  RH  037%=      5-min Rain = 0
KWE1 212349Z 18016KT 17/02 A2973 RMK A01 T01670021  RH  037%=      5-min Rain = 0
KWE1 212350Z 19016KT 17/02 A2973 RMK A01 T01670022  RH  038%=      5-min Rain = 0
KWE1 212351Z 18016KT 17/02 A2973 RMK A01 T01660021  RH  038%=      5-min Rain = 0
KWE1 212352Z 19017G22KT 17/02 A2973 RMK A01 T01660020  RH  037%=      5-min Rain = 0
KWE1 212353Z 19015G20KT 17/02 A2973 RMK A01 T01670020  RH  037%=      5-min Rain = 0
KWE1 212354Z 19017G22KT 17/02 A2973 RMK A01 T01670020  RH  037%=      5-min Rain = 0
KWE1 212355Z 18016KT 17/02 A2973 RMK A01 T01660020  RH  037%=      5-min Rain = 0
KWE1 212356Z 19017KT 17/02 A2973 RMK A01 T01660020  RH  037%=      5-min Rain = 0
KWE1 212357Z 19015KT 17/02 A2973 RMK A01 T01660021  RH  038%=      5-min Rain = 0
KWE1 212358Z 19019KT 17/02 A2972 RMK A01 T01650019  RH  038%=      5-min Rain = 0
KWE1 212359Z 19016G21KT 17/02 A2973 RMK A01 T01650019  RH  037%=      5-min Rain = 0
KWE1 220000Z 19018KT 17/02 A2973 RMK A01 T01660019  RH  037%=      5-min Rain = 0
KWE1 220001Z 19014KT 17/02 A2973 RMK A01 T01660018  RH  037%=      5-min Rain = 0
KWE1 220002Z 18015KT 17/02 A2972 RMK A01 T01660020  RH  037%=      5-min Rain = 0
KWE1 220003Z 18013KT 16/02 A2973 RMK A01 T01640020  RH  038%=      5-min Rain = 0
KWE1 220004Z 18017KT 16/02 A2972 RMK A01 T01620020  RH  038%=      5-min Rain = 0
KWE1 220005Z 18015G20KT 16/02 A2972 RMK A01 T01620020  RH  038%=      5-min Rain = 0
KWE1 220006Z 19015KT 16/02 A2972 RMK A01 T01620020  RH  038%=      5-min Rain = 0
KWE1 220007Z 18016KT 16/02 A2972 RMK A01 T01620019  RH  038%=      5-min Rain = 0
KWE1 220008Z 19016KT 16/02 A2972 RMK A01 T01620020  RH  038%=      5-min Rain = 0
KWE1 220009Z 18017KT 16/02 A2972 RMK A01 T01620020  RH  038%=      5-min Rain = 0
KWE1 220010Z 19016KT 16/02 A2972 RMK A01 T01620020  RH  038%=      5-min Rain = 0
KWE1 220011Z 18017KT 16/02 A2972 RMK A01 T01610019  RH  038%=      5-min Rain = 0
KWE1 220012Z 18019KT 16/02 A2972 RMK A01 T01610018  RH  038%=      5-min Rain = 0
KWE1 220013Z 18016KT 16/02 A2972 RMK A01 T01610019  RH  038%=      5-min Rain = 0
KWE1 220014Z 18015KT 16/02 A2972 RMK A01 T01610020  RH  039%=      5-min Rain = 0
KWE1 220015Z 18015KT 16/02 A2972 RMK A01 T01590020  RH  039%=      5-min Rain = 0
KWE1 220016Z 18017KT 16/02 A2971 RMK A01 T01580020  RH  039%=      5-min Rain = 0
KWE1 220017Z 18017KT 16/02 A2971 RMK A01 T01580019  RH  039%=      5-min Rain = 0
KWE1 220018Z 18017KT 16/02 A2971 RMK A01 T01580019  RH  039%=      5-min Rain = 0
KWE1 220019Z 18016G21KT 16/02 A2971 RMK A01 T01580019  RH  039%=      5-min Rain = 0
KWE1 220020Z 18016G21KT 16/02 A2971 RMK A01 T01580019  RH  039%=      5-min Rain = 0
KWE1 220021Z 18016KT 16/02 A2971 RMK A01 T01580019  RH  039%=      5-min Rain = 0
KWE1 220022Z 18015G20KT 16/02 A2971 RMK A01 T01570019  RH  039%=      5-min Rain = 0
KWE1 220023Z 18018KT 16/02 A2971 RMK A01 T01570019  RH  039%=      5-min Rain = 0
KWE1 220024Z 18016G23KT 16/02 A2971 RMK A01 T01570018  RH  039%=      5-min Rain = 0
KWE1 220025Z 18016KT 16/02 A2971 RMK A01 T01570019  RH  039%=      5-min Rain = 0
KWE1 220026Z 18017KT 16/02 A2971 RMK A01 T01570019  RH  039%=      5-min Rain = 0
KWE1 220027Z 18018KT 16/02 A2971 RMK A01 T01560018  RH  039%=      5-min Rain = 0
KWE1 220028Z 18017KT 16/02 A2971 RMK A01 T01570018  RH  039%=      5-min Rain = 0
KWE1 220029Z 18014KT 16/02 A2971 RMK A01 T01560019  RH  039%=      5-min Rain = 0
KWE1 220030Z 17015KT 16/02 A2971 RMK A01 T01550019  RH  040%=      5-min Rain = 0
KWE1 220031Z 18015KT 15/02 A2971 RMK A01 T01540019  RH  040%=      5-min Rain = 0
KWE1 220032Z 18014KT 15/02 A2971 RMK A01 T01530019  RH  040%=      5-min Rain = 0
KWE1 220033Z 17015KT 15/02 A2971 RMK A01 T01520020  RH  041%=      5-min Rain = 0
KWE1 220034Z 17013KT 15/02 A2971 RMK A01 T01510019  RH  041%=      5-min Rain = 0
KWE1 220035Z 18013KT 15/02 A2971 RMK A01 T01510019  RH  041%=      5-min Rain = 0
KWE1 220036Z 17013KT 15/02 A2971 RMK A01 T01500020  RH  041%=      5-min Rain = 0
KWE1 220037Z 17013KT 15/02 A2971 RMK A01 T01490018  RH  041%=      5-min Rain = 0
KWE1 220038Z 17013KT 15/02 A2971 RMK A01 T01490018  RH  041%=      5-min Rain = 0
KWE1 220039Z 17011KT 15/02 A2971 RMK A01 T01490018  RH  041%=      5-min Rain = 0
KWE1 220040Z 17012KT 15/02 A2972 RMK A01 T01490018  RH  041%=      5-min Rain = 0
KWE1 220041Z 18011KT 15/02 A2972 RMK A01 T01480018  RH  041%=      5-min Rain = 0
KWE1 220042Z 18012KT 15/02 A2972 RMK A01 T01480018  RH  041%=      5-min Rain = 0
KWE1 220043Z 18013KT 15/02 A2972 RMK A01 T01480018  RH  041%=      5-min Rain = 0
KWE1 220044Z 17013KT 15/02 A2972 RMK A01 T01480017  RH  041%=      5-min Rain = 0
KWE1 220045Z 17013KT 15/02 A2971 RMK A01 T01480017  RH  041%=      5-min Rain = 0
KWE1 220046Z 17014G19KT 15/02 A2971 RMK A01 T01470016  RH  041%=      5-min Rain = 0
KWE1 220047Z 17014KT 15/02 A2971 RMK A01 T01480016  RH  041%=      5-min Rain = 0
KWE1 220048Z 17013KT 15/02 A2971 RMK A01 T01480015  RH  041%=      5-min Rain = 0
KWE1 220049Z 17012KT 15/02 A2971 RMK A01 T01480015  RH  041%=      5-min Rain = 0
KWE1 220050Z 17012KT 15/02 A2971 RMK A01 T01480016  RH  041%=      5-min Rain = 0
KWE1 220051Z 17015KT 15/02 A2971 RMK A01 T01470016  RH  041%=      5-min Rain = 0
KWE1 220052Z 17013KT 15/02 A2971 RMK A01 T01470015  RH  041%=      5-min Rain = 0
KWE1 220053Z 17011G16KT 15/02 A2971 RMK A01 T01470015  RH  041%=      5-min Rain = 0
KWE1 220054Z 17012KT 15/02 A2971 RMK A01 T01460016  RH  041%=      5-min Rain = 0
KWE1 220055Z 17013KT 15/02 A2971 RMK A01 T01450015  RH  041%=      5-min Rain = 0
KWE1 220056Z 17012KT 15/02 A2971 RMK A01 T01460015  RH  041%=      5-min Rain = 0
KWE1 220057Z 17011G16KT 15/01 A2971 RMK A01 T01450014  RH  041%=      5-min Rain = 0
KWE1 220058Z 17011KT 15/01 A2971 RMK A01 T01450014  RH  041%=      5-min Rain = 0
KWE1 220059Z 17013KT 15/01 A2971 RMK A01 T01450014  RH  041%=      5-min Rain = 0
KWE1 220100Z 17012KT 15/01 A2971 RMK A01 T01450014  RH  041%=      5-min Rain = 0
KWE1 220101Z 17012KT 14/01 A2971 RMK A01 T01440014  RH  041%=      5-min Rain = 0
KWE1 220102Z 17014KT 14/01 A2971 RMK A01 T01440014  RH  041%=      5-min Rain = 0
KWE1 220103Z 17013G18KT 14/01 A2971 RMK A01 T01440014  RH  041%=      5-min Rain = 0
KWE1 220104Z 17014KT 14/02 A2971 RMK A01 T01440015  RH  042%=      5-min Rain = 0
KWE1 220105Z 17013G18KT 14/02 A2971 RMK A01 T01430015  RH  042%=      5-min Rain = 0
KWE1 220106Z 17013KT 14/02 A2972 RMK A01 T01430016  RH  042%=      5-min Rain = 0
KWE1 220107Z 17014G19KT 14/02 A2971 RMK A01 T01420016  RH  042%=      5-min Rain = 0
KWE1 220108Z 18014KT 14/02 A2972 RMK A01 T01420015  RH  042%=      5-min Rain = 0
KWE1 220109Z 17013KT 14/02 A2971 RMK A01 T01420016  RH  042%=      5-min Rain = 0
KWE1 220110Z 17015KT 14/02 A2971 RMK A01 T01420015  RH  042%=      5-min Rain = 0
KWE1 220111Z 17015KT 14/02 A2971 RMK A01 T01430015  RH  042%=      5-min Rain = 0
KWE1 220112Z 17016KT 14/02 A2971 RMK A01 T01440016  RH  042%=      5-min Rain = 0
KWE1 220113Z 18014KT 14/02 A2972 RMK A01 T01440016  RH  042%=      5-min Rain = 0
KWE1 220114Z 17014G20KT 14/02 A2972 RMK A01 T01440016  RH  042%=      5-min Rain = 0
KWE1 220115Z 17014KT 14/02 A2972 RMK A01 T01430016  RH  042%=      5-min Rain = 0
KWE1 220116Z 17017KT 14/02 A2971 RMK A01 T01430016  RH  042%=      5-min Rain = 0
KWE1 220117Z 17015KT 14/02 A2971 RMK A01 T01430016  RH  042%=      5-min Rain = 0
KWE1 220118Z 17016KT 14/02 A2971 RMK A01 T01440016  RH  042%=      5-min Rain = 0
KWE1 220119Z 17016KT 14/02 A2971 RMK A01 T01440016  RH  042%=      5-min Rain = 0
KWE1 220120Z 17016KT 14/02 A2971 RMK A01 T01440016  RH  042%=      5-min Rain = 0
KWE1 220121Z 17015KT 14/02 A2971 RMK A01 T01440016  RH  042%=      5-min Rain = 0
KWE1 220122Z 17014G19KT 14/02 A2971 RMK A01 T01430017  RH  042%=      5-min Rain = 0
KWE1 220123Z 17014KT 14/02 A2971 RMK A01 T01430017  RH  042%=      5-min Rain = 0
KWE1 220124Z 18015G20KT 14/02 A2971 RMK A01 T01430017  RH  042%=      5-min Rain = 0
KWE1 220125Z 17016KT 14/02 A2971 RMK A01 T01430017  RH  042%=      5-min Rain = 0
KWE1 220126Z 17016G22KT 14/02 A2971 RMK A01 T01430017  RH  042%=      5-min Rain = 0
KWE1 220127Z 17018G23KT 14/02 A2971 RMK A01 T01440017  RH  042%=      5-min Rain = 0
KWE1 220128Z 17017KT 14/02 A2971 RMK A01 T01440016  RH  042%=      5-min Rain = 0
KWE1 220129Z 17015G20KT 15/02 A2971 RMK A01 T01450017  RH  042%=      5-min Rain = 0
KWE1 220130Z 17016KT 15/02 A2971 RMK A01 T01450017  RH  042%=      5-min Rain = 0
KWE1 220131Z 17016KT 15/02 A2972 RMK A01 T01450017  RH  042%=      5-min Rain = 0
KWE1 220132Z 17015G20KT 15/02 A2972 RMK A01 T01450017  RH  042%=      5-min Rain = 0
KWE1 220133Z 17017G23KT 15/02 A2971 RMK A01 T01450017  RH  042%=      5-min Rain = 0
KWE1 220134Z 17016KT 15/02 A2971 RMK A01 T01450016  RH  042%=      5-min Rain = 0
KWE1 220135Z 17016G22KT 15/02 A2971 RMK A01 T01450016  RH  042%=      5-min Rain = 0
KWE1 220136Z 17015KT 15/02 A2972 RMK A01 T01450016  RH  042%=      5-min Rain = 0
KWE1 220137Z 17014KT 15/02 A2972 RMK A01 T01450017  RH  042%=      5-min Rain = 0
KWE1 220138Z 17015KT 14/02 A2971 RMK A01 T01440017  RH  042%=      5-min Rain = 0
KWE1 220139Z 17013KT 14/02 A2971 RMK A01 T01430017  RH  042%=      5-min Rain = 0
KWE1 220140Z 17014KT 14/02 A2971 RMK A01 T01430017  RH  043%=      5-min Rain = 0
KWE1 220141Z 17012KT 14/02 A2972 RMK A01 T01430018  RH  043%=      5-min Rain = 0
KWE1 220142Z 17014KT 14/02 A2972 RMK A01 T01420018  RH  043%=      5-min Rain = 0
KWE1 220143Z 17014G19KT 14/02 A2972 RMK A01 T01420018  RH  043%=      5-min Rain = 0
KWE1 220144Z 17013KT 14/02 A2972 RMK A01 T01420018  RH  043%=      5-min Rain = 0
KWE1 220145Z 17013KT 14/02 A2972 RMK A01 T01410018  RH  043%=      5-min Rain = 0
KWE1 220146Z 17013G18KT 14/02 A2972 RMK A01 T01410018  RH  043%=      5-min Rain = 0
KWE1 220147Z 17012G17KT 14/02 A2972 RMK A01 T01410018  RH  043%=      5-min Rain = 0
KWE1 220148Z 17014KT 14/02 A2972 RMK A01 T01410018  RH  043%=      5-min Rain = 0
KWE1 220149Z 17012KT 14/02 A2972 RMK A01 T01410018  RH  043%=      5-min Rain = 0
KWE1 220150Z 17013KT 14/02 A2972 RMK A01 T01410018  RH  043%=      5-min Rain = 0
KWE1 220151Z 17013KT 14/02 A2972 RMK A01 T01400018  RH  043%=      5-min Rain = 0
KWE1 220152Z 17012KT 14/02 A2972 RMK A01 T01400018  RH  044%=      5-min Rain = 0
KWE1 220153Z 17012KT 14/02 A2972 RMK A01 T01390018  RH  044%=      5-min Rain = 0
KWE1 220154Z 17014KT 14/02 A2972 RMK A01 T01400018  RH  044%=      5-min Rain = 0
KWE1 220155Z 17012KT 14/02 A2972 RMK A01 T01390018  RH  044%=      5-min Rain = 0
KWE1 220156Z 17012KT 14/02 A2972 RMK A01 T01390018  RH  044%=      5-min Rain = 0
KWE1 220157Z 16012KT 14/02 A2972 RMK A01 T01390018  RH  044%=      5-min Rain = 0
KWE1 220158Z 16011G17KT 14/02 A2972 RMK A01 T01380018  RH  044%=      5-min Rain = 0
KWE1 220159Z 16011KT 14/02 A2972 RMK A01 T01380019  RH  044%=      5-min Rain = 0
KWE1 220200Z 17014G19KT 14/02 A2972 RMK A01 T01370018  RH  045%=      5-min Rain = 0
KWE1 220201Z 17013KT 14/02 A2972 RMK A01 T01370019  RH  045%=      5-min Rain = 0
KWE1 220202Z 17013KT 14/02 A2972 RMK A01 T01370019  RH  045%=      5-min Rain = 0
KWE1 220203Z 17013KT 14/02 A2972 RMK A01 T01380020  RH  045%=      5-min Rain = 0
KWE1 220204Z 17013KT 14/02 A2972 RMK A01 T01380020  RH  045%=      5-min Rain = 0
KWE1 220205Z 17014KT 14/02 A2972 RMK A01 T01370021  RH  045%=      5-min Rain = 0
KWE1 220206Z 18012KT 14/02 A2972 RMK A01 T01370022  RH  046%=      5-min Rain = 0
KWE1 220207Z 17013KT 14/02 A2972 RMK A01 T01370023  RH  046%=      5-min Rain = 0
KWE1 220208Z 17014KT 14/02 A2972 RMK A01 T01360023  RH  046%=      5-min Rain = 0
KWE1 220209Z 17014KT 14/02 A2972 RMK A01 T01360023  RH  046%=      5-min Rain = 0
KWE1 220210Z 17013KT 14/02 A2972 RMK A01 T01360024  RH  047%=      5-min Rain = 0
KWE1 220211Z 18015KT 14/02 A2972 RMK A01 T01360024  RH  047%=      5-min Rain = 0
KWE1 220212Z 17014KT 14/02 A2972 RMK A01 T01360024  RH  047%=      5-min Rain = 0
KWE1 220213Z 17013KT 14/03 A2972 RMK A01 T01360025  RH  047%=      5-min Rain = 0
KWE1 220214Z 17013KT 14/03 A2972 RMK A01 T01360025  RH  047%=      5-min Rain = 0
KWE1 220215Z 17013KT 14/03 A2972 RMK A01 T01360026  RH  047%=      5-min Rain = 0
KWE1 220216Z 17013KT 14/03 A2972 RMK A01 T01350026  RH  048%=      5-min Rain = 0
KWE1 220217Z 17013KT 14/03 A2972 RMK A01 T01350026  RH  048%=      5-min Rain = 0
KWE1 220218Z 17013KT 14/03 A2972 RMK A01 T01350027  RH  048%=      5-min Rain = 0
KWE1 220219Z 17014KT 13/03 A2972 RMK A01 T01340027  RH  048%=      5-min Rain = 0
KWE1 220220Z 17015KT 13/03 A2972 RMK A01 T01340027  RH  048%=      5-min Rain = 0
KWE1 220221Z 17014KT 13/03 A2972 RMK A01 T01340027  RH  048%=      5-min Rain = 0
KWE1 220222Z 17015KT 13/03 A2972 RMK A01 T01340028  RH  048%=      5-min Rain = 0
KWE1 220223Z 17013KT 13/03 A2972 RMK A01 T01340028  RH  049%=      5-min Rain = 0
KWE1 220224Z 17013KT 13/03 A2972 RMK A01 T01340028  RH  049%=      5-min Rain = 0
KWE1 220225Z 17014KT 13/03 A2972 RMK A01 T01340029  RH  049%=      5-min Rain = 0
KWE1 220226Z 17013KT 14/03 A2972 RMK A01 T01350030  RH  049%=      5-min Rain = 0
KWE1 220227Z 17014KT 13/03 A2972 RMK A01 T01340029  RH  049%=      5-min Rain = 0
KWE1 220228Z 17013KT 13/03 A2972 RMK A01 T01340030  RH  049%=      5-min Rain = 0
KWE1 220229Z 17014KT 13/03 A2972 RMK A01 T01340030  RH  049%=      5-min Rain = 0
KWE1 220230Z 17019KT 14/03 A2972 RMK A01 T01350030  RH  049%=      5-min Rain = 0
KWE1 220231Z 17015G21KT 14/03 A2972 RMK A01 T01360030  RH  049%=      5-min Rain = 0
KWE1 220232Z 17016KT 14/03 A2972 RMK A01 T01370030  RH  049%=      5-min Rain = 0
KWE1 220233Z 17015KT 14/03 A2972 RMK A01 T01370030  RH  049%=      5-min Rain = 0
KWE1 220234Z 18017KT 14/03 A2972 RMK A01 T01370031  RH  049%=      5-min Rain = 0
KWE1 220235Z 17014KT 14/03 A2972 RMK A01 T01370031  RH  049%=      5-min Rain = 0
KWE1 220236Z 17016KT 14/03 A2972 RMK A01 T01370031  RH  049%=      5-min Rain = 0
KWE1 220237Z 17015KT 14/03 A2972 RMK A01 T01360032  RH  049%=      5-min Rain = 0
KWE1 220238Z 17017G23KT 14/03 A2972 RMK A01 T01360032  RH  049%=      5-min Rain = 0
KWE1 220239Z 17017KT 14/03 A2972 RMK A01 T01360032  RH  049%=      5-min Rain = 0
KWE1 220240Z 17018G26KT 14/03 A2972 RMK A01 T01370032  RH  049%=      5-min Rain = 0
KWE1 220241Z 18015KT 14/03 A2972 RMK A01 T01370032  RH  049%=      5-min Rain = 0
KWE1 220242Z 17019KT 14/03 A2972 RMK A01 T01380032  RH  049%=      5-min Rain = 0
KWE1 220243Z 18017KT 14/03 A2972 RMK A01 T01380032  RH  049%=      5-min Rain = 0
KWE1 220244Z 18016G21KT 14/03 A2972 RMK A01 T01380033  RH  049%=      5-min Rain = 0
KWE1 220245Z 18019KT 14/03 A2972 RMK A01 T01370033  RH  050%=      5-min Rain = 0
KWE1 220246Z 18017KT 14/03 A2972 RMK A01 T01370034  RH  050%=      5-min Rain = 0
KWE1 220247Z 18017G22KT 14/03 A2972 RMK A01 T01370034  RH  050%=      5-min Rain = 0
KWE1 220248Z 18018KT 14/04 A2972 RMK A01 T01370035  RH  050%=      5-min Rain = 0
KWE1 220249Z 17020KT 14/04 A2972 RMK A01 T01360035  RH  050%=      5-min Rain = 0
KWE1 220250Z 17018KT 14/04 A2972 RMK A01 T01370035  RH  050%=      5-min Rain = 0
KWE1 220251Z 17017KT 14/04 A2972 RMK A01 T01370035  RH  050%=      5-min Rain = 0
KWE1 220252Z 18018G23KT 14/04 A2972 RMK A01 T01370036  RH  051%=      5-min Rain = 0
KWE1 220253Z 17019KT 14/04 A2972 RMK A01 T01360037  RH  051%=      5-min Rain = 0
KWE1 220254Z 17020KT 14/04 A2972 RMK A01 T01360037  RH  051%=      5-min Rain = 0
KWE1 220255Z 17018KT 14/04 A2972 RMK A01 T01360037  RH  051%=      5-min Rain = 0
KWE1 220256Z 17020KT 14/04 A2972 RMK A01 T01360038  RH  051%=      5-min Rain = 0
KWE1 220257Z 18018G24KT 14/04 A2972 RMK A01 T01360038  RH  051%=      5-min Rain = 0
KWE1 220258Z 17019G25KT 14/04 A2972 RMK A01 T01360038  RH  052%=      5-min Rain = 0
KWE1 220259Z 17018KT 14/04 A2972 RMK A01 T01360039  RH  052%=      5-min Rain = 0
KWE1 220300Z 18021G30KT 14/04 A2972 RMK A01 T01360039  RH  052%=      5-min Rain = 0
KWE1 220301Z 18020KT 14/04 A2972 RMK A01 T01350039  RH  052%=      5-min Rain = 0
KWE1 220302Z 17019G24KT 14/04 A2972 RMK A01 T01360039  RH  052%=      5-min Rain = 0
KWE1 220303Z 17021KT 14/04 A2972 RMK A01 T01360040  RH  052%=      5-min Rain = 0
KWE1 220304Z 17017KT 14/04 A2972 RMK A01 T01360040  RH  052%=      5-min Rain = 0
KWE1 220305Z 17020G25KT 14/04 A2972 RMK A01 T01360041  RH  053%=      5-min Rain = 0
KWE1 220306Z 17020G25KT 14/04 A2972 RMK A01 T01350041  RH  053%=      5-min Rain = 0
KWE1 220307Z 17018KT 14/04 A2972 RMK A01 T01350041  RH  053%=      5-min Rain = 0
KWE1 220308Z 18020G28KT 14/04 A2972 RMK A01 T01350041  RH  053%=      5-min Rain = 0
KWE1 220309Z 18019KT 14/04 A2972 RMK A01 T01350041  RH  053%=      5-min Rain = 0
KWE1 220310Z 18019KT 14/04 A2972 RMK A01 T01350041  RH  053%=      5-min Rain = 0
KWE1 220311Z 17017KT 13/04 A2972 RMK A01 T01340042  RH  054%=      5-min Rain = 0
KWE1 220312Z 17021G26KT 13/04 A2972 RMK A01 T01330042  RH  054%=      5-min Rain = 0
KWE1 220313Z 17021KT 13/04 A2972 RMK A01 T01330042  RH  054%=      5-min Rain = 0
KWE1 220314Z 17020G25KT 13/04 A2972 RMK A01 T01340042  RH  054%=      5-min Rain = 0
KWE1 220315Z 18020KT 13/04 A2972 RMK A01 T01340043  RH  054%=      5-min Rain = 0
KWE1 220316Z 17020G25KT 13/04 A2972 RMK A01 T01340043  RH  054%=      5-min Rain = 0
KWE1 220317Z 18021G26KT 13/04 A2972 RMK A01 T01330043  RH  054%=      5-min Rain = 0
KWE1 220318Z 17020G28KT 13/04 A2972 RMK A01 T01340043  RH  054%=      5-min Rain = 0
KWE1 220319Z 17020KT 13/04 A2972 RMK A01 T01340043  RH  054%=      5-min Rain = 0
KWE1 220320Z 17020G25KT 13/04 A2972 RMK A01 T01340043  RH  054%=      5-min Rain = 0
KWE1 220321Z 17018G24KT 13/04 A2972 RMK A01 T01340044  RH  054%=      5-min Rain = 0
KWE1 220322Z 17018KT 13/04 A2972 RMK A01 T01330044  RH  055%=      5-min Rain = 0
KWE1 220323Z 17018KT 13/04 A2972 RMK A01 T01330044  RH  055%=      5-min Rain = 0
KWE1 220324Z 18018KT 13/05 A2972 RMK A01 T01330045  RH  055%=      5-min Rain = 0
KWE1 220325Z 17018G24KT 13/05 A2972 RMK A01 T01330045  RH  055%=      5-min Rain = 0
KWE1 220326Z 17021KT 13/05 A2972 RMK A01 T01320045  RH  055%=      5-min Rain = 0
KWE1 220327Z 18019G26KT 13/05 A2972 RMK A01 T01330045  RH  055%=      5-min Rain = 0
KWE1 220328Z 17016G21KT 13/05 A2972 RMK A01 T01330045  RH  055%=      5-min Rain = 0
KWE1 220329Z 17019G24KT 13/05 A2972 RMK A01 T01320045  RH  056%=      5-min Rain = 0
KWE1 220330Z 18018KT 13/05 A2972 RMK A01 T01320046  RH  056%=      5-min Rain = 0
KWE1 220331Z 17018G26KT 13/05 A2971 RMK A01 T01320046  RH  056%=      5-min Rain = 0
KWE1 220332Z 17018G23KT 13/05 A2971 RMK A01 T01320046  RH  056%=      5-min Rain = 0
KWE1 220333Z 17017G24KT 13/05 A2971 RMK A01 T01320047  RH  056%=      5-min Rain = 0
KWE1 220334Z 17017KT 13/05 A2971 RMK A01 T01310046  RH  056%=      5-min Rain = 0
KWE1 220335Z 17021G26KT 13/05 A2971 RMK A01 T01310047  RH  056%=      5-min Rain = 0
KWE1 220336Z 17020KT 13/05 A2971 RMK A01 T01310047  RH  056%=      5-min Rain = 0
KWE1 220337Z 17019G24KT 13/05 A2971 RMK A01 T01310046  RH  056%=      5-min Rain = 0
KWE1 220338Z 17020G25KT 13/05 A2971 RMK A01 T01320047  RH  056%=      5-min Rain = 0
KWE1 220339Z 17018KT 13/05 A2971 RMK A01 T01320047  RH  057%=      5-min Rain = 0
KWE1 220340Z 17021KT 13/05 A2971 RMK A01 T01320048  RH  057%=      5-min Rain = 0
KWE1 220341Z 17018KT 13/05 A2971 RMK A01 T01320048  RH  057%=      5-min Rain = 0
KWE1 220342Z 17017KT 13/05 A2971 RMK A01 T01310048  RH  057%=      5-min Rain = 0
KWE1 220343Z 17015G21KT 13/05 A2971 RMK A01 T01310048  RH  057%=      5-min Rain = 0
KWE1 220344Z 18017G22KT 13/05 A2971 RMK A01 T01310048  RH  057%=      5-min Rain = 0
KWE1 220345Z 18019KT 13/05 A2971 RMK A01 T01310049  RH  057%=      5-min Rain = 0
KWE1 220346Z 17018G24KT 13/05 A2971 RMK A01 T01310049  RH  057%=      5-min Rain = 0
KWE1 220347Z 18018KT 13/05 A2971 RMK A01 T01310049  RH  058%=      5-min Rain = 0
KWE1 220348Z 18019KT 13/05 A2971 RMK A01 T01300049  RH  058%=      5-min Rain = 0
KWE1 220349Z 18021G26KT 13/05 A2971 RMK A01 T01300049  RH  058%=      5-min Rain = 0
KWE1 220350Z 18020G25KT 13/05 A2971 RMK A01 T01310050  RH  058%=      5-min Rain = 0
KWE1 220351Z 18019G24KT 13/05 A2972 RMK A01 T01320050  RH  058%=      5-min Rain = 0
KWE1 220352Z 18018KT 13/05 A2972 RMK A01 T01310050  RH  058%=      5-min Rain = 0
KWE1 220353Z 18019G25KT 13/05 A2972 RMK A01 T01310050  RH  058%=      5-min Rain = 0
KWE1 220354Z 18016KT 13/05 A2972 RMK A01 T01310050  RH  058%=      5-min Rain = 0
KWE1 220355Z 18017KT 13/05 A2972 RMK A01 T01300050  RH  058%=      5-min Rain = 0
KWE1 220356Z 18018KT 13/05 A2972 RMK A01 T01300051  RH  059%=      5-min Rain = 0
KWE1 220357Z 18018KT 13/05 A2972 RMK A01 T01300051  RH  059%=      5-min Rain = 0
KWE1 220358Z 18016KT 13/05 A2972 RMK A01 T01300051  RH  059%=      5-min Rain = 0
KWE1 220359Z 18016KT 13/05 A2971 RMK A01 T01300051  RH  059%=      5-min Rain = 0
KWE1 220400Z 18016G22KT 13/05 A2971 RMK A01 T01290051  RH  059%=      5-min Rain = 0
KWE1 220401Z 17020KT 13/05 A2971 RMK A01 T01290051  RH  059%=      5-min Rain = 0
KWE1 220402Z 18019KT 13/05 A2971 RMK A01 T01290052  RH  059%=      5-min Rain = 0
KWE1 220403Z 18018KT 13/05 A2971 RMK A01 T01300052  RH  059%=      5-min Rain = 0
KWE1 220404Z 18019G24KT 13/05 A2971 RMK A01 T01300052  RH  059%=      5-min Rain = 0
KWE1 220405Z 19017KT 13/05 A2971 RMK A01 T01300052  RH  059%=      5-min Rain = 0
KWE1 220406Z 18019KT 13/05 A2971 RMK A01 T01300052  RH  059%=      5-min Rain = 0
KWE1 220407Z 18016KT 13/05 A2972 RMK A01 T01300052  RH  059%=      5-min Rain = 0
KWE1 220408Z 18014KT 13/05 A2972 RMK A01 T01300053  RH  060%=      5-min Rain = 0
KWE1 220409Z 18017KT 13/05 A2971 RMK A01 T01290053  RH  060%=      5-min Rain = 0
KWE1 220410Z 18017KT 13/05 A2971 RMK A01 T01290053  RH  060%=      5-min Rain = 0
KWE1 220411Z 18017G22KT 13/05 A2971 RMK A01 T01290053  RH  060%=      5-min Rain = 0
KWE1 220412Z 18017KT 13/05 A2971 RMK A01 T01290053  RH  060%=      5-min Rain = 0
KWE1 220413Z 18019KT 13/05 A2971 RMK A01 T01280054  RH  060%=      5-min Rain = 0
KWE1 220414Z 18018KT 13/05 A2971 RMK A01 T01280054  RH  061%=      5-min Rain = 0
KWE1 220415Z 18018G25KT 13/05 A2971 RMK A01 T01280054  RH  061%=      5-min Rain = 0
KWE1 220416Z 18016KT 13/05 A2971 RMK A01 T01280054  RH  061%=      5-min Rain = 0
KWE1 220417Z 18018G23KT 13/05 A2972 RMK A01 T01280054  RH  061%=      5-min Rain = 0
KWE1 220418Z 18016KT 13/05 A2971 RMK A01 T01280054  RH  061%=      5-min Rain = 0
KWE1 220419Z 18015KT 13/06 A2971 RMK A01 T01280055  RH  061%=      5-min Rain = 0
KWE1 220420Z 18015KT 13/06 A2972 RMK A01 T01280055  RH  061%=      5-min Rain = 0
KWE1 220421Z 18017KT 13/06 A2972 RMK A01 T01270055  RH  061%=      5-min Rain = 0
KWE1 220422Z 18018G23KT 13/06 A2972 RMK A01 T01270055  RH  061%=      5-min Rain = 0
KWE1 220423Z 18017KT 13/06 A2972 RMK A01 T01280055  RH  061%=      5-min Rain = 0
KWE1 220424Z 19017KT 13/06 A2972 RMK A01 T01280055  RH  061%=      5-min Rain = 0
KWE1 220425Z 19019G24KT 13/06 A2972 RMK A01 T01270055  RH  061%=      5-min Rain = 0
KWE1 220426Z 18017KT 13/06 A2972 RMK A01 T01280056  RH  062%=      5-min Rain = 0
KWE1 220427Z 18018KT 13/06 A2972 RMK A01 T01280056  RH  062%=      5-min Rain = 0
KWE1 220428Z 18017KT 13/06 A2972 RMK A01 T01280056  RH  062%=      5-min Rain = 0
KWE1 220429Z 18019G24KT 13/06 A2972 RMK A01 T01280056  RH  062%=      5-min Rain = 0
KWE1 220430Z 18018G23KT 13/06 A2972 RMK A01 T01270056  RH  062%=      5-min Rain = 0
KWE1 220431Z 18018G23KT 13/06 A2972 RMK A01 T01270056  RH  062%=      5-min Rain = 0
KWE1 220432Z 18017G25KT 13/06 A2972 RMK A01 T01280056  RH  062%=      5-min Rain = 0
KWE1 220433Z 18017G23KT 13/06 A2972 RMK A01 T01280057  RH  062%=      5-min Rain = 0
KWE1 220434Z 18019G26KT 13/06 A2972 RMK A01 T01270057  RH  062%=      5-min Rain = 0
KWE1 220435Z 18020KT 13/06 A2971 RMK A01 T01280057  RH  062%=      5-min Rain = 0
KWE1 220436Z 18017KT 13/06 A2971 RMK A01 T01270057  RH  062%=      5-min Rain = 0
KWE1 220437Z 18019G24KT 13/06 A2971 RMK A01 T01270057  RH  062%=      5-min Rain = 0
KWE1 220438Z 18019G24KT 13/06 A2971 RMK A01 T01270057  RH  062%=      5-min Rain = 0
KWE1 220439Z 18016G22KT 13/06 A2971 RMK A01 T01270057  RH  062%=      5-min Rain = 0
KWE1 220440Z 18018KT 13/06 A2971 RMK A01 T01270057  RH  062%=      5-min Rain = 0
KWE1 220441Z 18019G24KT 13/06 A2972 RMK A01 T01260057  RH  063%=      5-min Rain = 0
KWE1 220442Z 18017KT 13/06 A2972 RMK A01 T01260057  RH  063%=      5-min Rain = 0
KWE1 220443Z 18018KT 13/06 A2971 RMK A01 T01260057  RH  063%=      5-min Rain = 0
KWE1 220444Z 18018KT 13/06 A2971 RMK A01 T01260057  RH  063%=      5-min Rain = 0
KWE1 220445Z 18019KT 13/06 A2971 RMK A01 T01260057  RH  063%=      5-min Rain = 0
KWE1 220446Z 18017G22KT 13/06 A2971 RMK A01 T01270058  RH  063%=      5-min Rain = 0
KWE1 220447Z 18018KT 13/06 A2971 RMK A01 T01260058  RH  063%=      5-min Rain = 0
KWE1 220448Z 18018KT 13/06 A2971 RMK A01 T01260058  RH  063%=      5-min Rain = 0
KWE1 220449Z 18015KT 13/06 A2971 RMK A01 T01260058  RH  063%=      5-min Rain = 0
KWE1 220450Z 18017KT 13/06 A2971 RMK A01 T01260058  RH  063%=      5-min Rain = 0
KWE1 220451Z 18015KT 13/06 A2971 RMK A01 T01250058  RH  064%=      5-min Rain = 0
KWE1 220452Z 18018KT 13/06 A2971 RMK A01 T01250058  RH  064%=      5-min Rain = 0
KWE1 220453Z 19017KT 13/06 A2971 RMK A01 T01250059  RH  064%=      5-min Rain = 0
KWE1 220454Z 18017G22KT 13/06 A2971 RMK A01 T01250058  RH  064%=      5-min Rain = 0
KWE1 220455Z 18016KT 13/06 A2971 RMK A01 T01250059  RH  064%=      5-min Rain = 0
KWE1 220456Z 18017G23KT 13/06 A2971 RMK A01 T01250059  RH  064%=      5-min Rain = 0
KWE1 220457Z 18017KT 13/06 A2971 RMK A01 T01250059  RH  064%=      5-min Rain = 0
KWE1 220458Z 18015KT 13/06 A2971 RMK A01 T01250059  RH  064%=      5-min Rain = 0
KWE1 220459Z 18015KT 13/06 A2971 RMK A01 T01250059  RH  064%=      5-min Rain = 0
KWE1 220500Z 18017KT 12/06 A2971 RMK A01 T01240059  RH  064%=      5-min Rain = 0
KWE1 220501Z 18015G21KT 12/06 A2971 RMK A01 T01240059  RH  064%=      5-min Rain = 0
KWE1 220502Z 18015KT 12/06 A2971 RMK A01 T01240059  RH  064%=      5-min Rain = 0
KWE1 220503Z 18015KT 12/06 A2971 RMK A01 T01240060  RH  065%=      5-min Rain = 0
KWE1 220504Z 18017KT 12/06 A2971 RMK A01 T01240060  RH  065%=      5-min Rain = 0
KWE1 220505Z 18017KT 12/06 A2971 RMK A01 T01240060  RH  065%=      5-min Rain = 0
KWE1 220506Z 18016KT 12/06 A2971 RMK A01 T01240060  RH  065%=      5-min Rain = 0
KWE1 220507Z 18016G21KT 12/06 A2971 RMK A01 T01240060  RH  065%=      5-min Rain = 0
KWE1 220508Z 18016G23KT 12/06 A2971 RMK A01 T01240060  RH  065%=      5-min Rain = 0
KWE1 220509Z 18015KT 12/06 A2971 RMK A01 T01240060  RH  065%=      5-min Rain = 0
KWE1 220510Z 18015KT 12/06 A2971 RMK A01 T01240060  RH  065%=      5-min Rain = 0
KWE1 220511Z 18016KT 12/06 A2971 RMK A01 T01240061  RH  065%=      5-min Rain = 0
KWE1 220512Z 18018KT 12/06 A2971 RMK A01 T01240061  RH  065%=      5-min Rain = 0
KWE1 220513Z 18020KT 12/06 A2971 RMK A01 T01240061  RH  065%=      5-min Rain = 0
KWE1 220514Z 18017G22KT 12/06 A2971 RMK A01 T01240061  RH  065%=      5-min Rain = 0
KWE1 220515Z 18018KT 13/06 A2971 RMK A01 T01250061  RH  065%=      5-min Rain = 0
KWE1 220516Z 18017G22KT 13/06 A2971 RMK A01 T01250062  RH  065%=      5-min Rain = 0
KWE1 220517Z 18015G20KT 12/06 A2971 RMK A01 T01240061  RH  065%=      5-min Rain = 0
KWE1 220518Z 18017G23KT 12/06 A2971 RMK A01 T01230061  RH  066%=      5-min Rain = 0
KWE1 220519Z 18015KT 12/06 A2971 RMK A01 T01230062  RH  066%=      5-min Rain = 0
KWE1 220520Z 19016KT 12/06 A2971 RMK A01 T01230062  RH  066%=      5-min Rain = 0
KWE1 220521Z 18017KT 12/06 A2971 RMK A01 T01230062  RH  066%=      5-min Rain = 0
KWE1 220522Z 18016G21KT 12/06 A2971 RMK A01 T01230062  RH  066%=      5-min Rain = 0
KWE1 220523Z 18019G24KT 12/06 A297 RMK A01 T01230062  RH  066%=      5-min Rain = 0
KWE1 220524Z 18019KT 12/06 A297 RMK A01 T01240063  RH  066%=      5-min Rain = 0
KWE1 220525Z 18018KT 12/06 A297 RMK A01 T01240062  RH  066%=      5-min Rain = 0
KWE1 220526Z 19019KT 13/06 A297 RMK A01 T01250063  RH  066%=      5-min Rain = 0
KWE1 220527Z 18019KT 13/06 A297 RMK A01 T01250063  RH  066%=      5-min Rain = 0
KWE1 220528Z 18018G23KT 13/06 A297 RMK A01 T01250063  RH  066%=      5-min Rain = 0
KWE1 220529Z 18019KT 13/06 A297 RMK A01 T01250063  RH  066%=      5-min Rain = 0
KWE1 220530Z 18018G23KT 13/06 A297 RMK A01 T01250063  RH  066%=      5-min Rain = 0
KWE1 220531Z 18018KT 13/06 A297 RMK A01 T01250063  RH  066%=      5-min Rain = 0
KWE1 220532Z 18017KT 13/06 A297 RMK A01 T01250064  RH  066%=      5-min Rain = 0
KWE1 220533Z 18015KT 12/06 A297 RMK A01 T01240064  RH  066%=      5-min Rain = 0
KWE1 220534Z 18019KT 12/06 A297 RMK A01 T01240064  RH  067%=      5-min Rain = 0
KWE1 220535Z 18018G23KT 12/06 A297 RMK A01 T01240064  RH  067%=      5-min Rain = 0
KWE1 220536Z 19019G25KT 12/06 A297 RMK A01 T01240064  RH  067%=      5-min Rain = 0
KWE1 220537Z 18018G25KT 13/06 A297 RMK A01 T01250064  RH  067%=      5-min Rain = 0
KWE1 220538Z 18019KT 13/06 A297 RMK A01 T01250064  RH  067%=      5-min Rain = 0
KWE1 220539Z 19018KT 13/06 A297 RMK A01 T01250064  RH  067%=      5-min Rain = 0
KWE1 220540Z 19020G25KT 13/06 A297 RMK A01 T01250064  RH  067%=      5-min Rain = 0
KWE1 220541Z 19021G26KT 13/07 A297 RMK A01 T01250065  RH  066%=      5-min Rain = 0
KWE1 220542Z 18020KT 13/07 A297 RMK A01 T01260065  RH  066%=      5-min Rain = 0
KWE1 220543Z 18020G26KT 13/07 A297 RMK A01 T01260065  RH  066%=      5-min Rain = 0
KWE1 220544Z 18021KT 13/07 A297 RMK A01 T01260065  RH  066%=      5-min Rain = 0
KWE1 220545Z 18020KT 13/07 A297 RMK A01 T01260065  RH  067%=      5-min Rain = 0
KWE1 220546Z 18021KT 13/07 A297 RMK A01 T01260065  RH  067%=      5-min Rain = 0
KWE1 220547Z 19019KT 13/07 A297 RMK A01 T01260065  RH  066%=      5-min Rain = 0
KWE1 220548Z 19020KT 13/07 A297 RMK A01 T01260065  RH  066%=      5-min Rain = 0
KWE1 220549Z 18019KT 13/07 A297 RMK A01 T01260065  RH  066%=      5-min Rain = 0
KWE1 220550Z 18021KT 13/07 A297 RMK A01 T01260065  RH  067%=      5-min Rain = 0
KWE1 220551Z 19019KT 13/07 A297 RMK A01 T01260066  RH  067%=      5-min Rain = 0
KWE1 220552Z 18018G23KT 13/07 A297 RMK A01 T01260066  RH  067%=      5-min Rain = 0
KWE1 220553Z 18022KT 13/07 A2969 RMK A01 T01260067  RH  067%=      5-min Rain = 0
KWE1 220554Z 18021G27KT 13/07 A2969 RMK A01 T01260067  RH  067%=      5-min Rain = 0
KWE1 220555Z 18023G28KT 13/07 A2969 RMK A01 T01260066  RH  067%=      5-min Rain = 0
KWE1 220556Z 18022G28KT 13/07 A2969 RMK A01 T01270067  RH  067%=      5-min Rain = 0
KWE1 220557Z 18022G27KT 13/07 A2969 RMK A01 T01270067  RH  067%=      5-min Rain = 0
KWE1 220558Z 18020G25KT 13/07 A2969 RMK A01 T01270067  RH  067%=      5-min Rain = 0
KWE1 220559Z 18021KT 13/07 A2969 RMK A01 T01270067  RH  067%=      5-min Rain = 0

Page generated in 0.1286 seconds.